Time,TemperatureF,DewpointF,PressureIn,WindDirection,WindDirectionDegrees,WindSpeedMPH,WindSpeedGustMPH,Humidity,HourlyPrecipIn,Conditions,Clouds,dailyrainin,SolarRadiationWatts/m^2,SoftwareType,DateUTC
2013-04-22 00:01:00,79.0,74.1,30.02,East,91,2.0,5.0,85,0.00,,FEW,0.10,0.00,VWS V14.01,2013-04-22 04:01:00,
2013-04-22 00:06:00,79.0,74.1,30.02,ENE,74,2.0,3.0,85,0.00,,FEW,0.00,0.00,VWS V14.01,2013-04-22 04:06:00,
2013-04-22 00:11:00,78.9,73.7,30.02,NE,45,4.0,5.0,84,0.00,,FEW,0.00,0.00,VWS V14.01,2013-04-22 04:11:00,
2013-04-22 00:16:00,78.9,73.7,30.02,East,84,2.0,5.0,84,0.00,,FEW,0.00,0.00,VWS V14.01,2013-04-22 04:16:00,
2013-04-22 00:17:00,78.9,73.7,30.02,ESE,108,3.0,5.0,84,0.00,,FEW,0.00,0.00,VWS V14.01,2013-04-22 04:17:00,
2013-04-22 00:21:00,78.9,73.7,30.02,ESE,111,1.0,5.0,84,0.00,,FEW,0.00,0.00,VWS V14.01,2013-04-22 04:21:00,
2013-04-22 00:22:00,78.9,74.0,30.02,ESE,103,1.0,5.0,85,0.00,,FEW,0.00,0.00,VWS V14.01,2013-04-22 04:22:00,
2013-04-22 00:26:00,79.0,74.1,30.02,East,97,1.0,5.0,85,0.00,,FEW,0.00,0.00,VWS V14.01,2013-04-22 04:26:00,
2013-04-22 00:27:00,79.0,74.1,30.02,ESE,110,0.0,5.0,85,0.00,,FEW,0.00,0.00,VWS V14.01,2013-04-22 04:27:00,
2013-04-22 00:31:00,79.0,74.1,30.02,SE,138,0.0,5.0,85,0.00,,FEW,0.00,0.00,VWS V14.01,2013-04-22 04:31:00,
2013-04-22 00:32:00,79.0,74.1,30.02,ESE,123,1.0,5.0,85,0.00,,FEW,0.00,0.00,VWS V14.01,2013-04-22 04:32:00,
2013-04-22 00:36:00,79.0,74.1,30.02,SE,128,1.0,6.0,85,0.00,,FEW,0.00,0.00,VWS V14.01,2013-04-22 04:36:00,
2013-04-22 00:37:00,79.0,74.1,30.02,SE,142,2.0,6.0,85,0.00,,FEW,0.00,0.00,VWS V14.01,2013-04-22 04:37:00,
2013-04-22 00:38:00,79.0,73.8,30.02,ESE,106,2.0,6.0,84,0.00,,FEW,0.00,0.00,VWS V14.01,2013-04-22 04:38:00,
2013-04-22 00:41:00,79.0,74.1,30.02,SE,146,5.0,7.0,85,0.00,,FEW,0.00,0.00,VWS V14.01,2013-04-22 04:41:00,
2013-04-22 00:42:00,79.1,73.8,30.02,SE,134,0.0,7.0,84,0.00,,FEW,0.00,0.00,VWS V14.01,2013-04-22 04:42:00,
2013-04-22 00:43:00,79.1,73.8,30.02,ESE,119,1.0,5.0,84,0.00,,FEW,0.00,0.00,VWS V14.01,2013-04-22 04:43:00,
2013-04-22 00:46:00,79.1,73.8,30.02,ESE,110,7.0,7.0,84,0.00,,FEW,0.00,0.00,VWS V14.01,2013-04-22 04:46:00,
2013-04-22 00:47:00,79.1,73.8,30.03,SSE,168,5.0,7.0,84,0.00,,FEW,0.00,0.00,VWS V14.01,2013-04-22 04:47:00,
2013-04-22 00:48:00,79.1,73.8,30.03,SSE,165,4.0,8.0,84,0.00,,FEW,0.00,0.00,VWS V14.01,2013-04-22 04:48:00,
2013-04-22 00:51:00,79.1,73.8,30.03,SE,127,3.0,8.0,84,0.00,,FEW,0.00,0.00,VWS V14.01,2013-04-22 04:51:00,
2013-04-22 00:52:00,79.1,73.8,30.03,ESE,116,4.0,8.0,84,0.00,,FEW,0.00,0.00,VWS V14.01,2013-04-22 04:52:00,
2013-04-22 00:53:00,79.1,73.8,30.03,ESE,121,3.0,3.0,84,0.00,,FEW,0.00,0.00,VWS V14.01,2013-04-22 04:53:00,
2013-04-22 00:56:00,79.2,73.9,30.03,SE,126,3.0,7.0,84,0.00,,FEW,0.00,0.00,VWS V14.01,2013-04-22 04:56:00,
2013-04-22 00:57:00,79.2,73.9,30.03,SE,138,4.0,7.0,84,0.00,,FEW,0.00,0.00,VWS V14.01,2013-04-22 04:57:00,
2013-04-22 00:58:00,79.2,73.9,30.03,SE,124,0.0,7.0,84,0.00,,FEW,0.00,0.00,VWS V14.01,2013-04-22 04:58:00,
2013-04-22 01:01:00,79.3,74.1,30.04,East,99,3.0,7.0,84,0.00,,FEW,0.00,0.00,VWS V14.01,2013-04-22 05:01:00,
2013-04-22 01:02:00,79.3,74.1,30.04,SE,134,2.0,7.0,84,0.00,,FEW,0.00,0.00,VWS V14.01,2013-04-22 05:02:00,
2013-04-22 01:03:00,79.3,74.1,30.04,East,98,2.0,2.0,84,0.00,,FEW,0.00,0.00,VWS V14.01,2013-04-22 05:03:00,
2013-04-22 01:07:00,79.3,74.1,30.04,ESE,112,2.0,5.0,84,0.00,,FEW,0.00,0.00,VWS V14.01,2013-04-22 05:07:00,
2013-04-22 01:08:00,79.3,74.1,30.04,SSE,163,0.0,5.0,84,0.00,,FEW,0.00,0.00,VWS V14.01,2013-04-22 05:08:00,
2013-04-22 01:12:00,79.3,74.1,30.04,ESE,119,0.0,5.0,84,0.00,,FEW,0.00,0.00,VWS V14.01,2013-04-22 05:12:00,
2013-04-22 01:13:00,79.3,74.1,30.04,ESE,119,1.0,1.0,84,0.00,,FEW,0.00,0.00,VWS V14.01,2013-04-22 05:13:00,
2013-04-22 01:17:00,79.3,73.7,30.03,SE,134,1.0,4.0,83,0.00,,FEW,0.00,0.00,VWS V14.01,2013-04-22 05:17:00,
2013-04-22 01:18:00,79.3,73.7,30.03,ESE,119,2.0,4.0,83,0.00,,FEW,0.00,0.00,VWS V14.01,2013-04-22 05:18:00,
2013-04-22 01:19:00,79.3,73.7,30.03,ESE,114,5.0,5.0,83,0.00,,FEW,0.00,0.00,VWS V14.01,2013-04-22 05:19:00,
2013-04-22 01:22:00,79.3,73.7,30.03,ESE,113,1.0,6.0,83,0.00,,FEW,0.00,0.00,VWS V14.01,2013-04-22 05:22:00,
2013-04-22 01:23:00,79.3,73.7,30.03,ESE,113,1.0,1.0,83,0.00,,FEW,0.00,0.00,VWS V14.01,2013-04-22 05:23:00,
2013-04-22 01:24:00,79.3,73.7,30.03,ESE,111,1.0,4.0,83,0.00,,FEW,0.00,0.00,VWS V14.01,2013-04-22 05:24:00,
2013-04-22 01:27:00,79.3,73.7,30.03,SSE,154,1.0,4.0,83,0.00,,FEW,0.00,0.00,VWS V14.01,2013-04-22 05:27:00,
2013-04-22 01:28:00,79.3,73.7,30.03,SSE,152,1.0,4.0,83,0.00,,FEW,0.00,0.00,VWS V14.01,2013-04-22 05:28:00,
2013-04-22 01:29:00,79.3,73.7,30.03,SE,125,1.0,4.0,83,0.00,,FEW,0.00,0.00,VWS V14.01,2013-04-22 05:29:00,
2013-04-22 01:32:00,79.4,73.8,30.02,SSE,148,2.0,2.0,83,0.00,,FEW,0.00,0.00,VWS V14.01,2013-04-22 05:32:00,
2013-04-22 01:33:00,79.4,73.8,30.02,SSE,161,2.0,3.0,83,0.00,,FEW,0.00,0.00,VWS V14.01,2013-04-22 05:33:00,
2013-04-22 01:34:00,79.4,73.8,30.02,ESE,118,3.0,3.0,83,0.00,,FEW,0.00,0.00,VWS V14.01,2013-04-22 05:34:00,
2013-04-22 01:38:00,79.4,73.8,30.02,SE,138,2.0,5.0,83,0.00,,FEW,0.00,0.00,VWS V14.01,2013-04-22 05:38:00,
2013-04-22 01:39:00,79.4,73.8,30.02,ESE,108,3.0,5.0,83,0.00,,FEW,0.00,0.00,VWS V14.01,2013-04-22 05:39:00,
2013-04-22 01:40:00,79.3,73.7,30.02,SSE,163,4.0,7.0,83,0.00,,FEW,0.00,0.00,VWS V14.01,2013-04-22 05:40:00,
2013-04-22 01:43:00,79.3,73.7,30.02,SE,132,3.0,3.0,83,0.00,,FEW,0.00,0.00,VWS V14.01,2013-04-22 05:43:00,
2013-04-22 01:44:00,79.3,73.7,30.02,ESE,121,3.0,4.0,83,0.00,,FEW,0.00,0.00,VWS V14.01,2013-04-22 05:44:00,
2013-04-22 01:45:00,79.3,73.7,30.02,East,95,2.0,4.0,83,0.00,,FEW,0.00,0.00,VWS V14.01,2013-04-22 05:45:00,
2013-04-22 01:48:00,79.4,74.2,30.01,SE,130,0.0,4.0,84,0.00,,FEW,0.00,0.00,VWS V14.01,2013-04-22 05:48:00,
2013-04-22 01:49:00,79.4,74.2,30.01,ESE,116,7.0,7.0,84,0.00,,FEW,0.00,0.00,VWS V14.01,2013-04-22 05:49:00,
2013-04-22 01:50:00,79.3,73.7,30.01,ESE,115,0.0,7.0,83,0.00,,FEW,0.00,0.00,VWS V14.01,2013-04-22 05:50:00,
2013-04-22 01:53:00,79.3,74.1,30.01,ENE,74,0.0,0.0,84,0.00,,FEW,0.00,0.00,VWS V14.01,2013-04-22 05:53:00,
2013-04-22 01:54:00,79.3,74.1,30.01,SE,126,0.0,3.0,84,0.00,,FEW,0.00,0.00,VWS V14.01,2013-04-22 05:54:00,
2013-04-22 01:55:00,79.3,74.1,30.01,ESE,123,0.0,3.0,84,0.00,,FEW,0.00,0.00,VWS V14.01,2013-04-22 05:55:00,
2013-04-22 01:58:00,79.3,74.1,30.01,ESE,116,1.0,3.0,84,0.00,,FEW,0.00,0.00,VWS V14.01,2013-04-22 05:58:00,
2013-04-22 01:59:00,79.3,74.1,30.01,ESE,115,0.0,3.0,84,0.00,,FEW,0.00,0.00,VWS V14.01,2013-04-22 05:59:00,
2013-04-22 02:00:00,79.3,74.1,30.01,ESE,113,1.0,3.0,84,0.00,,FEW,0.00,0.00,VWS V14.01,2013-04-22 06:00:00,
2013-04-22 02:03:00,79.3,74.1,30.01,SE,144,3.0,4.0,84,0.00,,FEW,0.00,0.00,VWS V14.01,2013-04-22 06:03:00,
2013-04-22 02:04:00,79.3,74.1,30.01,ESE,115,3.0,4.0,84,0.00,,FEW,0.00,0.00,VWS V14.01,2013-04-22 06:04:00,
2013-04-22 02:05:00,79.3,74.1,30.01,SE,142,2.0,4.0,84,0.00,,FEW,0.00,0.00,VWS V14.01,2013-04-22 06:05:00,
2013-04-22 02:08:00,79.1,73.5,30.01,SE,141,9.0,12.0,83,0.00,,FEW,0.00,0.00,VWS V14.01,2013-04-22 06:08:00,
2013-04-22 02:09:00,78.8,72.1,30.01,ESE,105,4.0,12.0,80,0.00,,FEW,0.00,0.00,VWS V14.01,2013-04-22 06:09:00,
2013-04-22 02:10:00,78.6,71.9,30.01,SSE,148,12.0,12.0,80,0.00,,FEW,0.00,0.00,VWS V14.01,2013-04-22 06:10:00,
2013-04-22 02:13:00,78.1,71.1,30.01,ESE,118,9.0,9.0,79,0.00,,FEW,0.00,0.00,VWS V14.01,2013-04-22 06:13:00,
2013-04-22 02:14:00,78.1,71.1,30.01,ENE,71,4.0,10.0,79,0.00,,FEW,0.00,0.00,VWS V14.01,2013-04-22 06:14:00,
2013-04-22 02:15:00,77.9,70.9,30.01,SE,142,4.0,10.0,79,0.00,,FEW,0.00,0.00,VWS V14.01,2013-04-22 06:15:00,
2013-04-22 02:18:00,77.5,71.2,30.02,SE,146,7.0,10.0,81,0.06,,FEW,0.06,0.00,VWS V14.01,2013-04-22 06:18:00,
2013-04-22 02:19:00,77.5,71.2,30.02,SE,126,5.0,10.0,81,0.08,,FEW,0.08,0.00,VWS V14.01,2013-04-22 06:19:00,
2013-04-22 02:20:00,77.2,71.3,30.02,SE,134,4.0,10.0,82,0.11,,FEW,0.11,0.00,VWS V14.01,2013-04-22 06:20:00,
2013-04-22 02:23:00,76.8,71.2,30.02,SE,140,4.0,5.0,83,0.15,,FEW,0.15,0.00,VWS V14.01,2013-04-22 06:23:00,
2013-04-22 02:24:00,76.7,71.2,30.02,SE,133,4.0,5.0,83,0.18,,FEW,0.18,0.00,VWS V14.01,2013-04-22 06:24:00,
2013-04-22 02:25:00,76.3,70.8,30.02,SSE,161,1.0,5.0,83,0.24,,FEW,0.26,0.00,VWS V14.01,2013-04-22 06:25:00,
2013-04-22 02:28:00,76.0,70.8,30.02,SSE,161,0.0,5.0,84,0.29,,FEW,0.29,0.00,VWS V14.01,2013-04-22 06:28:00,
2013-04-22 02:29:00,75.9,70.7,30.02,SSE,161,0.0,5.0,84,0.29,,FEW,0.29,0.00,VWS V14.01,2013-04-22 06:29:00,
2013-04-22 02:30:00,75.8,70.6,30.02,South,169,1.0,5.0,84,0.30,,FEW,0.30,0.00,VWS V14.01,2013-04-22 06:30:00,
2013-04-22 02:33:00,75.7,70.9,30.00,South,169,0.0,0.0,85,0.32,,FEW,0.32,0.00,VWS V14.01,2013-04-22 06:33:00,
2013-04-22 02:34:00,75.7,70.9,30.00,South,169,0.0,0.0,85,0.32,,FEW,0.32,0.00,VWS V14.01,2013-04-22 06:34:00,
2013-04-22 02:35:00,75.6,70.8,30.00,South,169,0.0,0.0,85,0.32,,FEW,0.32,0.00,VWS V14.01,2013-04-22 06:35:00,
2013-04-22 02:36:00,75.6,70.8,30.00,South,169,2.0,2.0,85,0.32,,FEW,0.32,0.00,VWS V14.01,2013-04-22 06:36:00,
2013-04-22 02:38:00,75.4,70.9,30.00,South,169,0.0,2.0,86,0.32,,FEW,0.32,0.00,VWS V14.01,2013-04-22 06:38:00,
2013-04-22 02:39:00,75.4,70.9,30.00,South,169,1.0,2.0,86,0.32,,FEW,0.32,0.00,VWS V14.01,2013-04-22 06:39:00,
2013-04-22 02:40:00,75.3,70.8,30.00,ESE,119,2.0,2.0,86,0.33,,FEW,0.33,0.00,VWS V14.01,2013-04-22 06:40:00,
2013-04-22 02:41:00,75.3,70.8,30.00,ENE,68,3.0,3.0,86,0.33,,FEW,0.33,0.00,VWS V14.01,2013-04-22 06:41:00,
2013-04-22 02:44:00,74.9,70.8,30.00,NNW,345,2.0,3.0,87,0.33,,FEW,0.33,0.00,VWS V14.01,2013-04-22 06:44:00,
2013-04-22 02:45:00,74.8,70.7,30.00,NNW,348,2.0,3.0,87,0.33,,FEW,0.33,0.00,VWS V14.01,2013-04-22 06:45:00,
2013-04-22 02:46:00,74.7,70.6,30.00,NNW,348,1.0,3.0,87,0.33,,FEW,0.33,0.00,VWS V14.01,2013-04-22 06:46:00,
2013-04-22 02:49:00,74.4,70.3,29.99,North,350,0.0,3.0,87,0.35,,FEW,0.35,0.00,VWS V14.01,2013-04-22 06:49:00,
2013-04-22 02:50:00,74.4,70.6,29.99,North,350,1.0,3.0,88,0.35,,FEW,0.35,0.00,VWS V14.01,2013-04-22 06:50:00,
2013-04-22 02:51:00,74.4,70.6,29.99,North,350,2.0,3.0,88,0.35,,FEW,0.35,0.00,VWS V14.01,2013-04-22 06:51:00,
2013-04-22 02:54:00,74.2,70.4,29.99,NE,43,1.0,3.0,88,0.36,,FEW,0.36,0.00,VWS V14.01,2013-04-22 06:54:00,
2013-04-22 02:55:00,74.2,70.4,29.99,NE,42,1.0,3.0,88,0.36,,FEW,0.36,0.00,VWS V14.01,2013-04-22 06:55:00,
2013-04-22 02:56:00,74.2,70.4,29.99,NE,42,2.0,3.0,88,0.36,,FEW,0.36,0.00,VWS V14.01,2013-04-22 06:56:00,
2013-04-22 02:59:00,74.0,70.6,29.99,NE,48,3.0,5.0,89,0.36,,FEW,0.36,0.00,VWS V14.01,2013-04-22 06:59:00,
2013-04-22 03:00:00,73.9,70.1,29.99,ENE,61,2.0,5.0,88,0.36,,FEW,0.36,0.00,VWS V14.01,2013-04-22 07:00:00,
2013-04-22 03:01:00,73.8,70.0,29.99,NNE,12,2.0,5.0,88,0.36,,FEW,0.36,0.00,VWS V14.01,2013-04-22 07:01:00,
2013-04-22 03:04:00,73.4,69.6,29.98,ENE,67,3.0,3.0,88,0.37,,FEW,0.37,0.00,VWS V14.01,2013-04-22 07:04:00,
2013-04-22 03:05:00,73.3,69.5,29.98,ENE,65,2.0,3.0,88,0.37,,FEW,0.37,0.00,VWS V14.01,2013-04-22 07:05:00,
2013-04-22 03:06:00,73.1,69.3,29.98,NE,54,3.0,3.0,88,0.37,,FEW,0.37,0.00,VWS V14.01,2013-04-22 07:06:00,
2013-04-22 03:09:00,72.8,69.0,29.98,NE,54,1.0,3.0,88,0.37,,FEW,0.37,0.00,VWS V14.01,2013-04-22 07:09:00,
2013-04-22 03:10:00,72.8,69.4,29.98,NE,54,0.0,3.0,89,0.37,,FEW,0.37,0.00,VWS V14.01,2013-04-22 07:10:00,
2013-04-22 03:11:00,72.7,69.3,29.98,NE,53,1.0,3.0,89,0.37,,FEW,0.37,0.00,VWS V14.01,2013-04-22 07:11:00,
2013-04-22 03:14:00,72.6,69.2,29.98,NE,51,0.0,1.0,89,0.37,,FEW,0.37,0.00,VWS V14.01,2013-04-22 07:14:00,
2013-04-22 03:15:00,72.6,69.2,29.98,NE,51,0.0,1.0,89,0.37,,FEW,0.37,0.00,VWS V14.01,2013-04-22 07:15:00,
2013-04-22 03:16:00,72.6,69.2,29.98,NE,51,0.0,1.0,89,0.37,,FEW,0.37,0.00,VWS V14.01,2013-04-22 07:16:00,
2013-04-22 03:19:00,72.5,69.1,29.98,NE,51,0.0,1.0,89,0.38,,FEW,0.38,0.00,VWS V14.01,2013-04-22 07:19:00,
2013-04-22 03:20:00,72.5,69.4,29.98,NE,51,0.0,1.0,90,0.38,,FEW,0.38,0.00,VWS V14.01,2013-04-22 07:20:00,
2013-04-22 03:21:00,72.5,69.4,29.98,NE,51,0.0,1.0,90,0.38,,FEW,0.38,0.00,VWS V14.01,2013-04-22 07:21:00,
2013-04-22 03:24:00,72.5,69.4,29.98,NE,51,1.0,2.0,90,0.24,,FEW,0.38,0.00,VWS V14.01,2013-04-22 07:24:00,
2013-04-22 03:25:00,72.5,69.4,29.98,NE,51,1.0,2.0,90,0.24,,FEW,0.38,0.00,VWS V14.01,2013-04-22 07:25:00,
2013-04-22 03:26:00,72.5,69.4,29.98,NE,51,1.0,2.0,90,0.24,,FEW,0.38,0.00,VWS V14.01,2013-04-22 07:26:00,
2013-04-22 03:29:00,72.5,69.4,29.98,NE,51,0.0,2.0,90,0.24,,FEW,0.38,0.00,VWS V14.01,2013-04-22 07:29:00,
2013-04-22 03:31:00,72.6,69.5,29.98,NE,51,1.0,2.0,90,0.24,,FEW,0.38,0.00,VWS V14.01,2013-04-22 07:31:00,
2013-04-22 03:34:00,72.6,69.8,29.97,NE,51,0.0,0.0,91,0.07,,FEW,0.38,0.00,VWS V14.01,2013-04-22 07:34:00,
2013-04-22 03:36:00,72.6,69.8,29.97,NE,51,0.0,0.0,91,0.07,,FEW,0.38,0.00,VWS V14.01,2013-04-22 07:36:00,
2013-04-22 03:39:00,72.7,69.9,29.97,NE,51,0.0,0.0,91,0.08,,FEW,0.39,0.00,VWS V14.01,2013-04-22 07:39:00,
2013-04-22 03:41:00,72.7,69.9,29.97,NE,51,0.0,0.0,91,0.08,,FEW,0.39,0.00,VWS V14.01,2013-04-22 07:41:00,
2013-04-22 03:42:00,72.7,69.9,29.97,East,80,2.0,2.0,91,0.09,,FEW,0.40,0.00,VWS V14.01,2013-04-22 07:42:00,
2013-04-22 03:45:00,72.8,70.0,29.97,SE,132,2.0,5.0,91,0.07,,FEW,0.40,0.00,VWS V14.01,2013-04-22 07:45:00,
2013-04-22 03:46:00,72.9,70.4,29.97,ESE,117,3.0,5.0,92,0.08,,FEW,0.41,0.00,VWS V14.01,2013-04-22 07:46:00,
2013-04-22 03:47:00,72.9,70.4,29.98,East,97,0.0,5.0,92,0.08,,FEW,0.41,0.00,VWS V14.01,2013-04-22 07:47:00,
2013-04-22 03:50:00,73.0,70.5,29.98,ENE,68,3.0,5.0,92,0.10,,FEW,0.43,0.00,VWS V14.01,2013-04-22 07:50:00,
2013-04-22 03:51:00,73.0,70.5,29.98,NE,38,2.0,5.0,92,0.10,,FEW,0.43,0.00,VWS V14.01,2013-04-22 07:51:00,
2013-04-22 03:52:00,73.0,70.5,29.98,NNE,24,2.0,5.0,92,0.10,,FEW,0.43,0.00,VWS V14.01,2013-04-22 07:52:00,
2013-04-22 03:55:00,72.9,70.4,29.98,ESE,118,2.0,4.0,92,0.08,,FEW,0.44,0.00,VWS V14.01,2013-04-22 07:55:00,
2013-04-22 03:56:00,72.9,70.4,29.98,North,360,0.0,4.0,92,0.08,,FEW,0.44,0.00,VWS V14.01,2013-04-22 07:56:00,
2013-04-22 03:57:00,72.9,70.4,29.98,North,360,0.0,4.0,92,0.08,,FEW,0.44,0.00,VWS V14.01,2013-04-22 07:57:00,
2013-04-22 03:58:00,72.9,70.4,29.98,North,5,1.0,4.0,92,0.09,,FEW,0.45,0.00,VWS V14.01,2013-04-22 07:58:00,
2013-04-22 04:00:00,72.9,70.4,29.98,NNE,28,1.0,4.0,92,0.09,,FEW,0.45,0.00,VWS V14.01,2013-04-22 08:00:00,
2013-04-22 04:01:00,72.9,70.4,29.97,NE,42,0.0,4.0,92,0.09,,FEW,0.45,0.00,VWS V14.01,2013-04-22 08:01:00,
2013-04-22 04:02:00,72.9,70.4,29.97,NE,42,0.0,4.0,92,0.09,,FEW,0.45,0.00,VWS V14.01,2013-04-22 08:02:00,
2013-04-22 04:03:00,72.9,70.4,29.97,NNW,343,1.0,2.0,92,0.08,,FEW,0.45,0.00,VWS V14.01,2013-04-22 08:03:00,
2013-04-22 04:05:00,72.9,70.4,29.97,NNW,329,1.0,2.0,92,0.08,,FEW,0.45,0.00,VWS V14.01,2013-04-22 08:05:00,
2013-04-22 04:06:00,73.0,70.5,29.97,NNW,329,0.0,2.0,92,0.08,,FEW,0.45,0.00,VWS V14.01,2013-04-22 08:06:00,
2013-04-22 04:07:00,72.9,70.4,29.97,NNW,329,2.0,2.0,92,0.08,,FEW,0.45,0.00,VWS V14.01,2013-04-22 08:07:00,
2013-04-22 04:09:00,73.0,70.5,29.97,NNW,329,1.0,2.0,92,0.08,,FEW,0.45,0.00,VWS V14.01,2013-04-22 08:09:00,
2013-04-22 04:10:00,73.0,70.5,29.97,NNW,329,1.0,2.0,92,0.08,,FEW,0.45,0.00,VWS V14.01,2013-04-22 08:10:00,
2013-04-22 04:12:00,73.0,70.5,29.97,NNW,329,0.0,2.0,92,0.09,,FEW,0.46,0.00,VWS V14.01,2013-04-22 08:12:00,
2013-04-22 04:14:00,73.0,70.5,29.97,NNW,329,0.0,0.0,92,0.09,,FEW,0.46,0.00,VWS V14.01,2013-04-22 08:14:00,
2013-04-22 04:15:00,73.0,70.5,29.97,NNE,28,1.0,3.0,92,0.09,,FEW,0.46,0.00,VWS V14.01,2013-04-22 08:15:00,
2013-04-22 04:17:00,72.9,70.4,29.97,NNE,28,1.0,3.0,92,0.09,,FEW,0.46,0.00,VWS V14.01,2013-04-22 08:17:00,
2013-04-22 04:19:00,72.9,70.4,29.97,NNE,28,2.0,3.0,92,0.09,,FEW,0.46,0.00,VWS V14.01,2013-04-22 08:19:00,
2013-04-22 04:20:00,72.8,70.3,29.97,NNE,28,0.0,3.0,92,0.09,,FEW,0.46,0.00,VWS V14.01,2013-04-22 08:20:00,
2013-04-22 04:22:00,72.8,70.3,29.97,NNE,28,1.0,3.0,92,0.09,,FEW,0.46,0.00,VWS V14.01,2013-04-22 08:22:00,
2013-04-22 04:23:00,72.8,70.3,29.97,NNE,28,1.0,2.0,92,0.08,,FEW,0.46,0.00,VWS V14.01,2013-04-22 08:23:00,
2013-04-22 04:24:00,72.7,70.2,29.97,NNE,28,0.0,2.0,92,0.08,,FEW,0.46,0.00,VWS V14.01,2013-04-22 08:24:00,
2013-04-22 04:25:00,72.7,70.2,29.97,NNE,28,0.0,2.0,92,0.08,,FEW,0.46,0.00,VWS V14.01,2013-04-22 08:25:00,
2013-04-22 04:28:00,72.7,70.2,29.97,NNE,28,1.0,2.0,92,0.08,,FEW,0.46,0.00,VWS V14.01,2013-04-22 08:28:00,
2013-04-22 04:29:00,72.7,70.2,29.97,NNE,28,0.0,2.0,92,0.08,,FEW,0.46,0.00,VWS V14.01,2013-04-22 08:29:00,
2013-04-22 04:30:00,72.7,70.2,29.97,NNE,28,0.0,2.0,92,0.08,,FEW,0.46,0.00,VWS V14.01,2013-04-22 08:30:00,
2013-04-22 04:33:00,72.7,70.6,29.97,NNE,28,0.0,0.0,93,0.08,,FEW,0.46,0.00,VWS V14.01,2013-04-22 08:33:00,
2013-04-22 04:34:00,72.7,70.6,29.97,NNE,28,0.0,1.0,93,0.08,,FEW,0.46,0.00,VWS V14.01,2013-04-22 08:34:00,
2013-04-22 04:35:00,72.7,70.6,29.97,NNE,28,0.0,1.0,93,0.08,,FEW,0.46,0.00,VWS V14.01,2013-04-22 08:35:00,
2013-04-22 04:38:00,72.8,70.7,29.97,NNE,28,0.0,1.0,93,0.08,,FEW,0.46,0.00,VWS V14.01,2013-04-22 08:38:00,
2013-04-22 04:39:00,72.8,70.7,29.97,NNE,28,1.0,1.0,93,0.08,,FEW,0.46,0.00,VWS V14.01,2013-04-22 08:39:00,
2013-04-22 04:40:00,72.9,70.8,29.97,NNE,28,0.0,1.0,93,0.08,,FEW,0.46,0.00,VWS V14.01,2013-04-22 08:40:00,
2013-04-22 04:43:00,73.0,70.9,29.97,NNE,28,1.0,1.0,93,0.06,,FEW,0.46,0.00,VWS V14.01,2013-04-22 08:43:00,
2013-04-22 04:44:00,73.0,70.9,29.97,NNE,28,1.0,1.0,93,0.06,,FEW,0.46,0.00,VWS V14.01,2013-04-22 08:44:00,
2013-04-22 04:45:00,73.0,70.9,29.97,NNE,28,0.0,1.0,93,0.06,,FEW,0.46,0.00,VWS V14.01,2013-04-22 08:45:00,
2013-04-22 04:48:00,73.1,71.0,29.97,NNE,28,0.0,1.0,93,0.06,,FEW,0.46,0.00,VWS V14.01,2013-04-22 08:48:00,
2013-04-22 04:49:00,73.1,71.0,29.97,NNE,28,0.0,1.0,93,0.06,,FEW,0.46,0.00,VWS V14.01,2013-04-22 08:49:00,
2013-04-22 04:51:00,73.1,71.0,29.97,NNE,28,0.0,1.0,93,0.06,,FEW,0.46,0.00,VWS V14.01,2013-04-22 08:51:00,
2013-04-22 04:53:00,73.1,71.0,29.97,NNE,28,0.0,0.0,93,0.03,,FEW,0.46,0.00,VWS V14.01,2013-04-22 08:53:00,
2013-04-22 04:54:00,73.1,71.0,29.97,NNE,28,0.0,0.0,93,0.03,,FEW,0.46,0.00,VWS V14.01,2013-04-22 08:54:00,
2013-04-22 04:56:00,73.1,71.0,29.97,NNE,28,1.0,1.0,93,0.03,,FEW,0.46,0.00,VWS V14.01,2013-04-22 08:56:00,
2013-04-22 04:58:00,73.1,71.0,29.97,ENE,74,0.0,1.0,93,0.03,,FEW,0.46,0.00,VWS V14.01,2013-04-22 08:58:00,
2013-04-22 04:59:00,73.1,71.0,29.97,ENE,74,0.0,1.0,93,0.03,,FEW,0.46,0.00,VWS V14.01,2013-04-22 08:59:00,
2013-04-22 05:00:00,73.1,71.0,29.97,ENE,74,0.0,1.0,93,0.03,,FEW,0.46,0.00,VWS V14.01,2013-04-22 09:00:00,
2013-04-22 05:01:00,73.1,71.0,29.97,ENE,74,0.0,1.0,93,0.03,,FEW,0.46,0.00,VWS V14.01,2013-04-22 09:01:00,
2013-04-22 05:03:00,73.0,70.9,29.97,ENE,74,0.0,0.0,93,0.01,,FEW,0.46,0.00,VWS V14.01,2013-04-22 09:03:00,
2013-04-22 05:04:00,73.1,71.0,29.97,ENE,74,0.0,0.0,93,0.01,,FEW,0.46,0.00,VWS V14.01,2013-04-22 09:04:00,
2013-04-22 05:05:00,73.1,71.0,29.97,ENE,74,0.0,0.0,93,0.01,,FEW,0.46,0.00,VWS V14.01,2013-04-22 09:05:00,
2013-04-22 05:06:00,73.0,70.9,29.97,ENE,74,0.0,0.0,93,0.01,,FEW,0.46,0.00,VWS V14.01,2013-04-22 09:06:00,
2013-04-22 05:08:00,73.1,71.0,29.97,ENE,74,0.0,0.0,93,0.01,,FEW,0.46,0.00,VWS V14.01,2013-04-22 09:08:00,
2013-04-22 05:09:00,73.1,71.0,29.97,ENE,74,0.0,0.0,93,0.01,,FEW,0.46,0.00,VWS V14.01,2013-04-22 09:09:00,
2013-04-22 05:10:00,73.1,71.0,29.97,ENE,74,0.0,0.0,93,0.01,,FEW,0.46,0.00,VWS V14.01,2013-04-22 09:10:00,
2013-04-22 05:11:00,73.1,71.0,29.97,ENE,74,0.0,0.0,93,0.01,,FEW,0.46,0.00,VWS V14.01,2013-04-22 09:11:00,
2013-04-22 05:13:00,73.1,71.0,29.97,ENE,74,0.0,0.0,93,0.00,,FEW,0.46,0.00,VWS V14.01,2013-04-22 09:13:00,
2013-04-22 05:14:00,73.1,71.0,29.97,ENE,74,0.0,0.0,93,0.00,,FEW,0.46,0.00,VWS V14.01,2013-04-22 09:14:00,
2013-04-22 05:15:00,73.1,71.3,29.97,ENE,74,0.0,0.0,94,0.00,,FEW,0.46,0.00,VWS V14.01,2013-04-22 09:15:00,
2013-04-22 05:16:00,73.2,71.4,29.97,ENE,74,0.0,0.0,94,0.00,,FEW,0.46,0.00,VWS V14.01,2013-04-22 09:16:00,
2013-04-22 05:18:00,73.2,71.4,29.97,East,80,0.0,2.0,94,0.00,,FEW,0.46,0.00,VWS V14.01,2013-04-22 09:18:00,
2013-04-22 05:19:00,73.2,71.4,29.97,East,80,0.0,2.0,94,0.00,,FEW,0.46,0.00,VWS V14.01,2013-04-22 09:19:00,
2013-04-22 05:20:00,73.3,71.5,29.97,East,80,0.0,2.0,94,0.01,,FEW,0.47,0.00,VWS V14.01,2013-04-22 09:20:00,
2013-04-22 05:21:00,73.3,71.5,29.97,East,80,0.0,2.0,94,0.01,,FEW,0.47,0.00,VWS V14.01,2013-04-22 09:21:00,
2013-04-22 05:24:00,73.4,71.6,29.97,East,80,0.0,0.0,94,0.01,,FEW,0.47,0.00,VWS V14.01,2013-04-22 09:24:00,
2013-04-22 05:25:00,73.4,71.6,29.97,East,80,0.0,1.0,94,0.01,,FEW,0.47,0.00,VWS V14.01,2013-04-22 09:25:00,
2013-04-22 05:26:00,73.4,71.6,29.97,East,80,1.0,1.0,94,0.01,,FEW,0.47,0.00,VWS V14.01,2013-04-22 09:26:00,
2013-04-22 05:29:00,73.5,71.7,29.97,East,80,1.0,1.0,94,0.01,,FEW,0.47,0.00,VWS V14.01,2013-04-22 09:29:00,
2013-04-22 05:30:00,73.5,71.7,29.97,East,80,0.0,1.0,94,0.01,,FEW,0.47,0.00,VWS V14.01,2013-04-22 09:30:00,
2013-04-22 05:31:00,73.5,71.7,29.97,East,80,1.0,1.0,94,0.01,,FEW,0.47,0.00,VWS V14.01,2013-04-22 09:31:00,
2013-04-22 05:34:00,73.5,71.7,29.97,East,80,1.0,1.0,94,0.01,,FEW,0.47,0.00,VWS V14.01,2013-04-22 09:34:00,
2013-04-22 05:35:00,73.6,71.8,29.97,East,80,2.0,2.0,94,0.01,,FEW,0.47,0.00,VWS V14.01,2013-04-22 09:35:00,
2013-04-22 05:37:00,73.6,71.8,29.97,ENE,78,1.0,2.0,94,0.01,,FEW,0.47,0.00,VWS V14.01,2013-04-22 09:37:00,
2013-04-22 05:39:00,73.6,71.8,29.97,ENE,78,2.0,2.0,94,0.01,,FEW,0.47,0.00,VWS V14.01,2013-04-22 09:39:00,
2013-04-22 05:40:00,73.6,71.8,29.97,ENE,77,2.0,3.0,94,0.01,,FEW,0.47,0.00,VWS V14.01,2013-04-22 09:40:00,
2013-04-22 05:42:00,73.6,71.8,29.97,ENE,77,1.0,3.0,94,0.01,,FEW,0.47,0.00,VWS V14.01,2013-04-22 09:42:00,
2013-04-22 05:44:00,73.7,71.9,29.97,NNE,28,1.0,3.0,94,0.01,,FEW,0.47,0.00,VWS V14.01,2013-04-22 09:44:00,
2013-04-22 05:45:00,73.7,71.9,29.97,NNE,28,1.0,3.0,94,0.01,,FEW,0.47,0.00,VWS V14.01,2013-04-22 09:45:00,
2013-04-22 05:47:00,73.7,71.9,29.96,NNE,18,2.0,3.0,94,0.01,,FEW,0.47,0.00,VWS V14.01,2013-04-22 09:47:00,
2013-04-22 05:49:00,73.7,71.9,29.96,NNE,21,0.0,3.0,94,0.01,,FEW,0.47,0.00,VWS V14.01,2013-04-22 09:49:00,
2013-04-22 05:50:00,73.7,71.9,29.96,NNE,22,1.0,3.0,94,0.01,,FEW,0.47,0.00,VWS V14.01,2013-04-22 09:50:00,
2013-04-22 05:53:00,73.6,71.8,29.96,NNE,22,2.0,2.0,94,0.01,,FEW,0.47,0.00,VWS V14.01,2013-04-22 09:53:00,
2013-04-22 05:54:00,73.6,71.8,29.96,NNE,25,1.0,3.0,94,0.01,,FEW,0.47,0.00,VWS V14.01,2013-04-22 09:54:00,
2013-04-22 05:55:00,73.6,71.8,29.96,NNE,28,2.0,3.0,94,0.01,,FEW,0.47,0.00,VWS V14.01,2013-04-22 09:55:00,
2013-04-22 05:56:00,73.5,71.7,29.96,NNE,24,1.0,3.0,94,0.01,,FEW,0.47,0.00,VWS V14.01,2013-04-22 09:56:00,
2013-04-22 05:58:00,73.5,71.7,29.96,NNE,24,1.0,3.0,94,0.01,,FEW,0.47,0.00,VWS V14.01,2013-04-22 09:58:00,
2013-04-22 05:59:00,73.5,71.7,29.96,NNE,24,0.0,3.0,94,0.01,,FEW,0.47,0.00,VWS V14.01,2013-04-22 09:59:00,
2013-04-22 06:00:00,73.5,71.7,29.96,NNE,24,0.0,3.0,94,0.01,,FEW,0.47,0.00,VWS V14.01,2013-04-22 10:00:00,
2013-04-22 06:01:00,73.5,71.7,29.96,NNE,24,1.0,3.0,94,0.01,,FEW,0.47,0.00,VWS V14.01,2013-04-22 10:01:00,
2013-04-22 06:03:00,73.5,71.7,29.96,North,11,3.0,3.0,94,0.01,,FEW,0.47,0.00,VWS V14.01,2013-04-22 10:03:00,
2013-04-22 06:04:00,73.5,71.7,29.96,North,11,1.0,3.0,94,0.01,,FEW,0.47,0.00,VWS V14.01,2013-04-22 10:04:00,
2013-04-22 06:05:00,73.5,71.7,29.96,North,11,3.0,3.0,94,0.01,,FEW,0.47,0.00,VWS V14.01,2013-04-22 10:05:00,
2013-04-22 06:06:00,73.4,71.6,29.96,North,11,0.0,3.0,94,0.01,,FEW,0.47,0.00,VWS V14.01,2013-04-22 10:06:00,
2013-04-22 06:08:00,73.5,71.7,29.96,North,11,1.0,3.0,94,0.01,,FEW,0.47,0.00,VWS V14.01,2013-04-22 10:08:00,
2013-04-22 06:09:00,73.4,71.6,29.96,North,11,1.0,3.0,94,0.01,,FEW,0.47,0.00,VWS V14.01,2013-04-22 10:09:00,
2013-04-22 06:11:00,73.5,71.7,29.96,North,11,0.0,3.0,94,0.01,,FEW,0.47,0.00,VWS V14.01,2013-04-22 10:11:00,
2013-04-22 06:13:00,73.5,71.7,29.96,North,11,2.0,2.0,94,0.01,,FEW,0.47,0.00,VWS V14.01,2013-04-22 10:13:00,
2013-04-22 06:14:00,73.5,71.7,29.96,North,11,0.0,2.0,94,0.01,,FEW,0.47,0.00,VWS V14.01,2013-04-22 10:14:00,
2013-04-22 06:16:00,73.5,71.7,29.96,North,11,0.0,2.0,94,0.01,,FEW,0.47,0.00,VWS V14.01,2013-04-22 10:16:00,
2013-04-22 06:18:00,73.5,71.7,29.95,North,11,0.0,2.0,94,0.01,,FEW,0.47,0.00,VWS V14.01,2013-04-22 10:18:00,
2013-04-22 06:20:00,73.5,71.7,29.95,North,11,0.0,2.0,94,0.01,,FEW,0.47,0.00,VWS V14.01,2013-04-22 10:20:00,
2013-04-22 06:21:00,73.5,71.7,29.95,North,11,0.0,2.0,94,0.01,,FEW,0.47,0.00,VWS V14.01,2013-04-22 10:21:00,
2013-04-22 06:24:00,73.5,71.7,29.95,North,11,0.0,0.0,94,0.00,,FEW,0.47,0.00,VWS V14.01,2013-04-22 10:24:00,
2013-04-22 06:25:00,73.5,71.7,29.95,North,11,0.0,1.0,94,0.00,,FEW,0.47,0.00,VWS V14.01,2013-04-22 10:25:00,
2013-04-22 06:26:00,73.5,71.7,29.95,North,11,0.0,1.0,94,0.00,,FEW,0.47,0.00,VWS V14.01,2013-04-22 10:26:00,
2013-04-22 06:29:00,73.5,71.7,29.95,North,11,0.0,1.0,94,0.00,,FEW,0.47,0.00,VWS V14.01,2013-04-22 10:29:00,
2013-04-22 06:30:00,73.5,71.7,29.95,North,11,0.0,1.0,94,0.00,,FEW,0.47,0.00,VWS V14.01,2013-04-22 10:30:00,
2013-04-22 06:31:00,73.5,71.7,29.95,North,11,0.0,1.0,94,0.00,,FEW,0.47,0.00,VWS V14.01,2013-04-22 10:31:00,
2013-04-22 06:34:00,73.4,71.6,29.96,North,11,0.0,0.0,94,0.00,,FEW,0.47,0.00,VWS V14.01,2013-04-22 10:34:00,
2013-04-22 06:35:00,73.4,71.6,29.96,North,11,0.0,0.0,94,0.00,,FEW,0.47,0.00,VWS V14.01,2013-04-22 10:35:00,
2013-04-22 06:36:00,73.4,71.6,29.96,North,11,0.0,0.0,94,0.00,,FEW,0.47,0.00,VWS V14.01,2013-04-22 10:36:00,
2013-04-22 06:37:00,73.4,71.6,29.96,North,11,0.0,0.0,94,0.00,,FEW,0.47,0.00,VWS V14.01,2013-04-22 10:37:00,
2013-04-22 06:39:00,73.4,71.6,29.96,North,11,0.0,0.0,94,0.00,,FEW,0.47,0.00,VWS V14.01,2013-04-22 10:39:00,
2013-04-22 06:40:00,73.4,71.6,29.96,North,11,0.0,0.0,94,0.00,,FEW,0.47,0.00,VWS V14.01,2013-04-22 10:40:00,
2013-04-22 06:41:00,73.4,71.6,29.96,North,11,0.0,0.0,94,0.00,,FEW,0.47,0.00,VWS V14.01,2013-04-22 10:41:00,
2013-04-22 06:42:00,73.4,71.6,29.96,North,11,0.0,0.0,94,0.00,,FEW,0.47,0.00,VWS V14.01,2013-04-22 10:42:00,
2013-04-22 06:44:00,73.4,71.6,29.96,North,11,0.0,1.0,94,0.00,,FEW,0.47,0.00,VWS V14.01,2013-04-22 10:44:00,
2013-04-22 06:45:00,73.4,71.6,29.96,North,11,0.0,1.0,94,0.00,,FEW,0.47,0.00,VWS V14.01,2013-04-22 10:45:00,
2013-04-22 06:46:00,73.4,71.6,29.96,North,11,0.0,1.0,94,0.00,,FEW,0.47,0.00,VWS V14.01,2013-04-22 10:46:00,
2013-04-22 06:47:00,73.3,71.5,29.96,North,11,0.0,1.0,94,0.00,,FEW,0.47,0.00,VWS V14.01,2013-04-22 10:47:00,
2013-04-22 06:49:00,73.3,71.5,29.96,North,11,0.0,1.0,94,0.00,,FEW,0.47,0.00,VWS V14.01,2013-04-22 10:49:00,
2013-04-22 06:50:00,73.3,71.5,29.96,North,11,1.0,1.0,94,0.00,,FEW,0.47,0.00,VWS V14.01,2013-04-22 10:50:00,
2013-04-22 06:51:00,73.3,71.5,29.96,North,11,2.0,2.0,94,0.00,,FEW,0.47,0.00,VWS V14.01,2013-04-22 10:51:00,
2013-04-22 06:52:00,73.4,71.6,29.96,North,11,0.0,2.0,94,0.00,,FEW,0.47,0.00,VWS V14.01,2013-04-22 10:52:00,
2013-04-22 06:55:00,73.4,71.6,29.96,North,11,0.0,1.0,94,0.00,,FEW,0.47,0.00,VWS V14.01,2013-04-22 10:55:00,
2013-04-22 06:56:00,73.4,71.6,29.96,North,11,0.0,1.0,94,0.00,,FEW,0.47,0.00,VWS V14.01,2013-04-22 10:56:00,
2013-04-22 06:57:00,73.4,71.6,29.96,North,11,0.0,1.0,94,0.00,,FEW,0.47,0.00,VWS V14.01,2013-04-22 10:57:00,
2013-04-22 07:00:00,73.4,71.6,29.96,North,11,0.0,3.0,94,0.00,,FEW,0.47,0.00,VWS V14.01,2013-04-22 11:00:00,
2013-04-22 07:01:00,73.4,71.6,29.96,North,11,0.0,3.0,94,0.00,,FEW,0.47,0.00,VWS V14.01,2013-04-22 11:01:00,
2013-04-22 07:02:00,73.4,71.6,29.96,North,11,0.0,3.0,94,0.00,,FEW,0.47,0.00,VWS V14.01,2013-04-22 11:02:00,
2013-04-22 07:05:00,73.5,71.7,29.96,North,11,0.0,0.0,94,0.00,,FEW,0.47,0.00,VWS V14.01,2013-04-22 11:05:00,
2013-04-22 07:06:00,73.5,71.7,29.96,East,88,1.0,1.0,94,0.00,,FEW,0.47,0.00,VWS V14.01,2013-04-22 11:06:00,
2013-04-22 07:07:00,73.5,71.7,29.96,East,85,1.0,2.0,94,0.00,,FEW,0.47,0.00,VWS V14.01,2013-04-22 11:07:00,
2013-04-22 07:10:00,73.5,71.7,29.96,East,92,0.0,2.0,94,0.00,,FEW,0.47,0.00,VWS V14.01,2013-04-22 11:10:00,
2013-04-22 07:11:00,73.5,71.7,29.96,East,93,0.0,2.0,94,0.00,,FEW,0.47,0.00,VWS V14.01,2013-04-22 11:11:00,
2013-04-22 07:12:00,73.6,71.8,29.96,East,91,0.0,2.0,94,0.00,,FEW,0.47,0.00,VWS V14.01,2013-04-22 11:12:00,
2013-04-22 07:15:00,73.6,71.8,29.96,East,91,0.0,1.0,94,0.00,,FEW,0.47,5.00,VWS V14.01,2013-04-22 11:15:00,
2013-04-22 07:16:00,73.6,71.8,29.96,East,91,0.0,1.0,94,0.00,,FEW,0.47,7.00,VWS V14.01,2013-04-22 11:16:00,
2013-04-22 07:17:00,73.6,71.8,29.96,East,90,2.0,2.0,94,0.00,,FEW,0.47,7.00,VWS V14.01,2013-04-22 11:17:00,
2013-04-22 07:18:00,73.6,71.8,29.96,East,90,1.0,2.0,94,0.00,,FEW,0.47,7.00,VWS V14.01,2013-04-22 11:18:00,
2013-04-22 07:20:00,73.7,71.9,29.96,East,86,0.0,2.0,94,0.00,,FEW,0.47,7.00,VWS V14.01,2013-04-22 11:20:00,
2013-04-22 07:21:00,73.7,71.9,29.96,East,86,1.0,2.0,94,0.00,,FEW,0.47,9.00,VWS V14.01,2013-04-22 11:21:00,
2013-04-22 07:22:00,73.8,72.0,29.96,East,86,0.0,2.0,94,0.00,,FEW,0.47,9.00,VWS V14.01,2013-04-22 11:22:00,
2013-04-22 07:23:00,73.8,72.0,29.96,East,86,0.0,0.0,94,0.00,,FEW,0.47,11.00,VWS V14.01,2013-04-22 11:23:00,
2013-04-22 07:25:00,73.9,72.1,29.96,East,86,0.0,1.0,94,0.00,,FEW,0.47,14.00,VWS V14.01,2013-04-22 11:25:00,
2013-04-22 07:26:00,73.9,72.1,29.96,East,86,1.0,1.0,94,0.00,,FEW,0.47,14.00,VWS V14.01,2013-04-22 11:26:00,
2013-04-22 07:28:00,73.9,72.1,29.96,East,86,0.0,1.0,94,0.00,,FEW,0.47,18.00,VWS V14.01,2013-04-22 11:28:00,
2013-04-22 07:31:00,73.9,72.1,29.96,East,86,0.0,1.0,94,0.00,,FEW,0.47,23.00,VWS V14.01,2013-04-22 11:31:00,
2013-04-22 07:33:00,73.9,72.1,29.97,East,86,0.0,0.0,94,0.00,,FEW,0.47,26.00,VWS V14.01,2013-04-22 11:33:00,
2013-04-22 07:36:00,73.9,72.1,29.97,East,86,1.0,2.0,94,0.00,,FEW,0.47,33.00,VWS V14.01,2013-04-22 11:36:00,
2013-04-22 07:38:00,74.0,72.2,29.97,East,86,1.0,2.0,94,0.00,,FEW,0.47,42.00,VWS V14.01,2013-04-22 11:38:00,
2013-04-22 07:39:00,74.0,72.2,29.97,East,86,0.0,2.0,94,0.00,,FEW,0.47,42.00,VWS V14.01,2013-04-22 11:39:00,
2013-04-22 07:41:00,74.0,72.2,29.97,East,85,2.0,2.0,94,0.00,,FEW,0.47,49.00,VWS V14.01,2013-04-22 11:41:00,
2013-04-22 07:43:00,74.1,72.3,29.97,ENE,78,3.0,3.0,94,0.00,,FEW,0.47,56.00,VWS V14.01,2013-04-22 11:43:00,
2013-04-22 07:44:00,74.1,72.3,29.97,ENE,68,2.0,3.0,94,0.00,,FEW,0.47,63.00,VWS V14.01,2013-04-22 11:44:00,
2013-04-22 07:46:00,74.2,72.4,29.97,ENE,65,0.0,3.0,94,0.00,,FEW,0.47,65.00,VWS V14.01,2013-04-22 11:46:00,
2013-04-22 07:48:00,74.2,72.4,29.98,NE,53,1.0,3.0,94,0.00,,FEW,0.47,67.00,VWS V14.01,2013-04-22 11:48:00,
2013-04-22 07:49:00,74.3,72.5,29.98,ENE,60,2.0,3.0,94,0.00,,FEW,0.47,65.00,VWS V14.01,2013-04-22 11:49:00,
2013-04-22 07:51:00,74.5,73.0,29.98,North,5,4.0,5.0,95,0.00,,FEW,0.47,62.00,VWS V14.01,2013-04-22 11:51:00,
2013-04-22 07:53:00,74.7,72.9,29.98,NNE,33,4.0,4.0,94,0.00,,FEW,0.47,58.00,VWS V14.01,2013-04-22 11:53:00,
2013-04-22 07:54:00,74.8,73.0,29.98,NE,40,2.0,4.0,94,0.00,,FEW,0.47,58.00,VWS V14.01,2013-04-22 11:54:00,
2013-04-22 07:56:00,75.0,73.5,29.98,NE,42,3.0,5.0,95,0.00,,FEW,0.47,56.00,VWS V14.01,2013-04-22 11:56:00,
2013-04-22 07:57:00,75.0,73.5,29.98,NE,36,5.0,5.0,95,0.00,,FEW,0.47,56.00,VWS V14.01,2013-04-22 11:57:00,
2013-04-22 07:58:00,75.1,73.3,29.98,NNE,19,2.0,5.0,94,0.00,,FEW,0.47,58.00,VWS V14.01,2013-04-22 11:58:00,
2013-04-22 08:00:00,75.1,73.3,29.98,NNE,30,3.0,6.0,94,0.00,,FEW,0.47,58.00,VWS V14.01,2013-04-22 12:00:00,
2013-04-22 08:01:00,75.2,73.4,29.98,NNE,24,2.0,6.0,94,0.00,,FEW,0.47,56.00,VWS V14.01,2013-04-22 12:01:00,
2013-04-22 08:02:00,75.2,73.4,29.99,NNE,20,2.0,6.0,94,0.00,,FEW,0.47,54.00,VWS V14.01,2013-04-22 12:02:00,
2013-04-22 08:04:00,75.2,73.4,29.99,NNE,31,4.0,5.0,94,0.00,,FEW,0.47,54.00,VWS V14.01,2013-04-22 12:04:00,
2013-04-22 08:05:00,75.2,73.4,29.99,NE,49,0.0,5.0,94,0.00,,FEW,0.47,53.00,VWS V14.01,2013-04-22 12:05:00,
2013-04-22 08:06:00,75.3,73.5,29.99,NE,43,4.0,6.0,94,0.00,,FEW,0.47,51.00,VWS V14.01,2013-04-22 12:06:00,
2013-04-22 08:07:00,75.3,73.5,29.99,NNE,27,5.0,6.0,94,0.00,,FEW,0.47,51.00,VWS V14.01,2013-04-22 12:07:00,
2013-04-22 08:09:00,75.2,73.4,29.99,NE,39,6.0,6.0,94,0.00,,FEW,0.47,47.00,VWS V14.01,2013-04-22 12:09:00,
2013-04-22 08:10:00,75.2,73.4,29.99,NE,34,3.0,6.0,94,0.00,,FEW,0.47,46.00,VWS V14.01,2013-04-22 12:10:00,
2013-04-22 08:11:00,75.2,73.4,29.99,ENE,61,3.0,6.0,94,0.00,,FEW,0.47,42.00,VWS V14.01,2013-04-22 12:11:00,
2013-04-22 08:12:00,75.2,73.4,29.99,NE,47,2.0,6.0,94,0.00,,FEW,0.47,42.00,VWS V14.01,2013-04-22 12:12:00,
2013-04-22 08:14:00,75.3,73.5,29.99,NE,37,3.0,5.0,94,0.00,,FEW,0.47,42.00,VWS V14.01,2013-04-22 12:14:00,
2013-04-22 08:15:00,75.3,73.5,29.99,NNE,29,3.0,6.0,94,0.00,,FEW,0.47,42.00,VWS V14.01,2013-04-22 12:15:00,
2013-04-22 08:16:00,75.3,73.5,29.99,NE,46,4.0,6.0,94,0.00,,FEW,0.47,44.00,VWS V14.01,2013-04-22 12:16:00,
2013-04-22 08:17:00,75.3,73.5,29.99,North,5,3.0,6.0,94,0.00,,FEW,0.47,44.00,VWS V14.01,2013-04-22 12:17:00,
2013-04-22 08:18:00,75.3,73.5,29.99,NNE,33,3.0,6.0,94,0.00,,FEW,0.47,46.00,VWS V14.01,2013-04-22 12:18:00,
2013-04-22 08:19:00,75.4,73.6,29.99,NNE,31,2.0,6.0,94,0.00,,FEW,0.47,51.00,VWS V14.01,2013-04-22 12:19:00,
2013-04-22 08:21:00,75.5,73.7,29.99,NNE,29,1.0,6.0,94,0.00,,FEW,0.47,54.00,VWS V14.01,2013-04-22 12:21:00,
2013-04-22 08:22:00,75.5,73.7,29.99,NNE,23,2.0,6.0,94,0.00,,FEW,0.47,58.00,VWS V14.01,2013-04-22 12:22:00,
2013-04-22 08:23:00,75.5,73.7,29.99,NE,39,3.0,3.0,94,0.00,,FEW,0.47,60.00,VWS V14.01,2013-04-22 12:23:00,
2013-04-22 08:24:00,75.4,73.6,29.99,ENE,63,2.0,3.0,94,0.00,,FEW,0.47,63.00,VWS V14.01,2013-04-22 12:24:00,
2013-04-22 08:26:00,75.5,73.7,29.99,East,86,0.0,3.0,94,0.00,,FEW,0.47,65.00,VWS V14.01,2013-04-22 12:26:00,
2013-04-22 08:27:00,75.5,73.3,29.99,East,86,2.0,3.0,93,0.00,,FEW,0.47,67.00,VWS V14.01,2013-04-22 12:27:00,
2013-04-22 08:28:00,75.5,73.3,29.99,NE,34,2.0,3.0,93,0.00,,FEW,0.47,67.00,VWS V14.01,2013-04-22 12:28:00,
2013-04-22 08:29:00,75.5,73.3,29.99,NE,44,4.0,4.0,93,0.00,,FEW,0.47,65.00,VWS V14.01,2013-04-22 12:29:00,
2013-04-22 08:31:00,75.6,73.4,29.99,NE,44,2.0,6.0,93,0.00,,FEW,0.47,65.00,VWS V14.01,2013-04-22 12:31:00,
2013-04-22 08:32:00,75.6,73.4,29.99,ENE,66,5.0,7.0,93,0.00,,FEW,0.47,65.00,VWS V14.01,2013-04-22 12:32:00,
2013-04-22 08:33:00,75.6,73.8,29.99,ENE,59,1.0,1.0,94,0.00,,FEW,0.47,65.00,VWS V14.01,2013-04-22 12:33:00,
2013-04-22 08:35:00,75.7,73.8,29.99,NE,43,4.0,6.0,94,0.00,,FEW,0.47,72.00,VWS V14.01,2013-04-22 12:35:00,
2013-04-22 08:36:00,75.7,73.5,29.99,NE,44,2.0,6.0,93,0.00,,FEW,0.47,76.00,VWS V14.01,2013-04-22 12:36:00,
2013-04-22 08:37:00,75.7,73.5,29.99,NNE,30,5.0,6.0,93,0.00,,FEW,0.47,76.00,VWS V14.01,2013-04-22 12:37:00,
2013-04-22 08:38:00,75.7,73.5,29.99,NE,39,2.0,6.0,93,0.00,,FEW,0.47,77.00,VWS V14.01,2013-04-22 12:38:00,
2013-04-22 08:40:00,75.7,73.5,29.99,NE,36,3.0,6.0,93,0.00,,FEW,0.47,81.00,VWS V14.01,2013-04-22 12:40:00,
2013-04-22 08:41:00,75.7,73.5,29.99,NNE,27,0.0,6.0,93,0.00,,FEW,0.47,83.00,VWS V14.01,2013-04-22 12:41:00,
2013-04-22 08:42:00,75.7,73.5,29.99,ENE,57,2.0,6.0,93,0.00,,FEW,0.47,84.00,VWS V14.01,2013-04-22 12:42:00,
2013-04-22 08:43:00,75.8,73.6,29.99,ENE,75,1.0,3.0,93,0.00,,FEW,0.47,84.00,VWS V14.01,2013-04-22 12:43:00,
2013-04-22 08:45:00,75.8,73.6,29.99,ENE,64,3.0,4.0,93,0.00,,FEW,0.47,88.00,VWS V14.01,2013-04-22 12:45:00,
2013-04-22 08:46:00,75.8,73.6,29.99,ENE,59,4.0,7.0,93,0.00,,FEW,0.47,90.00,VWS V14.01,2013-04-22 12:46:00,
2013-04-22 08:47:00,75.7,73.5,29.99,ENE,59,1.0,7.0,93,0.00,,FEW,0.47,90.00,VWS V14.01,2013-04-22 12:47:00,
2013-04-22 08:48:00,75.8,73.6,29.99,ENE,59,0.0,7.0,93,0.00,,FEW,0.47,90.00,VWS V14.01,2013-04-22 12:48:00,
2013-04-22 08:50:00,75.8,73.6,29.99,NE,46,2.0,7.0,93,0.00,,FEW,0.47,90.00,VWS V14.01,2013-04-22 12:50:00,
2013-04-22 08:51:00,75.8,73.6,29.99,East,83,3.0,7.0,93,0.00,,FEW,0.47,90.00,VWS V14.01,2013-04-22 12:51:00,
2013-04-22 08:52:00,75.8,73.6,29.99,NE,37,0.0,7.0,93,0.00,,FEW,0.47,90.00,VWS V14.01,2013-04-22 12:52:00,
2013-04-22 08:53:00,75.8,73.6,29.99,NE,37,1.0,1.0,93,0.00,,FEW,0.47,90.00,VWS V14.01,2013-04-22 12:53:00,
2013-04-22 08:55:00,75.9,73.7,29.99,ENE,64,2.0,3.0,93,0.00,,FEW,0.47,95.00,VWS V14.01,2013-04-22 12:55:00,
2013-04-22 08:56:00,75.9,73.7,29.99,NE,40,3.0,3.0,93,0.00,,FEW,0.47,98.00,VWS V14.01,2013-04-22 12:56:00,
2013-04-22 08:57:00,76.0,73.8,29.99,NE,34,2.0,4.0,93,0.00,,FEW,0.47,102.00,VWS V14.01,2013-04-22 12:57:00,
2013-04-22 08:58:00,76.0,73.8,29.99,NNE,30,5.0,5.0,93,0.00,,FEW,0.47,105.00,VWS V14.01,2013-04-22 12:58:00,
2013-04-22 09:00:00,76.0,73.5,29.99,NE,51,0.0,5.0,92,0.00,,FEW,0.47,113.00,VWS V14.01,2013-04-22 13:00:00,
2013-04-22 09:01:00,76.0,73.5,30.00,NE,36,3.0,5.0,92,0.00,,FEW,0.47,116.00,VWS V14.01,2013-04-22 13:01:00,
2013-04-22 09:03:00,76.0,73.5,30.00,ENE,65,2.0,2.0,92,0.00,,FEW,0.47,120.00,VWS V14.01,2013-04-22 13:03:00,
2013-04-22 09:04:00,76.0,73.5,30.00,NNE,32,2.0,4.0,92,0.00,,FEW,0.47,120.00,VWS V14.01,2013-04-22 13:04:00,
2013-04-22 09:05:00,76.0,73.5,30.00,NE,49,3.0,4.0,92,0.00,,FEW,0.47,121.00,VWS V14.01,2013-04-22 13:05:00,
2013-04-22 09:07:00,76.0,73.5,30.00,East,90,0.0,4.0,92,0.00,,FEW,0.47,127.00,VWS V14.01,2013-04-22 13:07:00,
2013-04-22 09:08:00,76.0,73.5,30.00,ENE,62,0.0,4.0,92,0.00,,FEW,0.47,127.00,VWS V14.01,2013-04-22 13:08:00,
2013-04-22 09:09:00,76.0,73.5,30.00,ENE,69,2.0,4.0,92,0.00,,FEW,0.47,123.00,VWS V14.01,2013-04-22 13:09:00,
2013-04-22 09:10:00,76.0,73.5,30.00,ENE,57,2.0,5.0,92,0.00,,FEW,0.47,123.00,VWS V14.01,2013-04-22 13:10:00,
2013-04-22 09:12:00,76.0,73.5,30.00,NE,40,1.0,5.0,92,0.00,,FEW,0.47,120.00,VWS V14.01,2013-04-22 13:12:00,
2013-04-22 09:13:00,76.1,73.6,30.00,NE,40,1.0,2.0,92,0.00,,FEW,0.47,116.00,VWS V14.01,2013-04-22 13:13:00,
2013-04-22 09:14:00,76.1,73.6,30.00,NE,52,0.0,2.0,92,0.00,,FEW,0.47,113.00,VWS V14.01,2013-04-22 13:14:00,
2013-04-22 09:15:00,76.1,73.3,30.00,NE,53,0.0,2.0,91,0.00,,FEW,0.47,109.00,VWS V14.01,2013-04-22 13:15:00,
2013-04-22 09:17:00,76.2,73.7,30.00,East,95,2.0,3.0,92,0.00,,FEW,0.47,100.00,VWS V14.01,2013-04-22 13:17:00,
2013-04-22 09:18:00,76.2,73.4,30.00,East,89,2.0,5.0,91,0.00,,FEW,0.47,98.00,VWS V14.01,2013-04-22 13:18:00,
2013-04-22 09:19:00,76.2,73.4,30.00,East,80,0.0,5.0,91,0.00,,FEW,0.47,97.00,VWS V14.01,2013-04-22 13:19:00,
2013-04-22 09:20:00,76.2,73.4,30.00,East,80,1.0,5.0,91,0.00,,FEW,0.47,93.00,VWS V14.01,2013-04-22 13:20:00,
2013-04-22 09:22:00,76.2,73.4,30.00,NE,51,1.0,5.0,91,0.00,,FEW,0.47,95.00,VWS V14.01,2013-04-22 13:22:00,
2013-04-22 09:23:00,76.2,73.1,30.00,NE,34,2.0,4.0,90,0.00,,FEW,0.47,100.00,VWS V14.01,2013-04-22 13:23:00,
2013-04-22 09:24:00,76.2,73.1,30.00,NE,34,0.0,4.0,90,0.00,,FEW,0.47,111.00,VWS V14.01,2013-04-22 13:24:00,
2013-04-22 09:26:00,76.2,73.1,30.00,NE,40,1.0,4.0,90,0.00,,FEW,0.47,141.00,VWS V14.01,2013-04-22 13:26:00,
2013-04-22 09:27:00,76.3,73.2,30.00,ENE,64,2.0,4.0,90,0.00,,FEW,0.47,162.00,VWS V14.01,2013-04-22 13:27:00,
2013-04-22 09:28:00,76.3,73.2,30.00,NE,49,2.0,4.0,90,0.00,,FEW,0.47,188.00,VWS V14.01,2013-04-22 13:28:00,
2013-04-22 09:29:00,76.3,73.2,30.00,NE,49,1.0,4.0,90,0.00,,FEW,0.47,188.00,VWS V14.01,2013-04-22 13:29:00,
2013-04-22 09:31:00,76.4,73.2,30.00,NE,34,2.0,4.0,90,0.00,,FEW,0.47,200.00,VWS V14.01,2013-04-22 13:31:00,
2013-04-22 09:32:00,76.6,73.4,30.00,NE,42,0.0,4.0,90,0.00,,FEW,0.47,202.00,VWS V14.01,2013-04-22 13:32:00,
2013-04-22 09:34:00,76.7,73.6,30.00,NE,47,1.0,3.0,90,0.00,,FEW,0.47,174.00,VWS V14.01,2013-04-22 13:34:00,
2013-04-22 09:36:00,76.8,73.7,30.00,NE,46,2.0,3.0,90,0.00,,FEW,0.47,162.00,VWS V14.01,2013-04-22 13:36:00,
2013-04-22 09:38:00,76.9,73.4,30.00,ENE,76,1.0,4.0,89,0.00,,FEW,0.47,156.00,VWS V14.01,2013-04-22 13:38:00,
2013-04-22 09:39:00,76.9,73.4,30.00,NE,51,1.0,4.0,89,0.00,,FEW,0.47,165.00,VWS V14.01,2013-04-22 13:39:00,
2013-04-22 09:40:00,77.0,73.5,30.00,East,98,1.0,4.0,89,0.00,,FEW,0.47,172.00,VWS V14.01,2013-04-22 13:40:00,
2013-04-22 09:41:00,77.0,73.5,30.00,NE,44,4.0,6.0,89,0.00,,FEW,0.47,183.00,VWS V14.01,2013-04-22 13:41:00,
2013-04-22 09:43:00,77.1,73.6,30.00,ENE,74,1.0,3.0,89,0.00,,FEW,0.47,197.00,VWS V14.01,2013-04-22 13:43:00,
2013-04-22 09:44:00,77.2,73.7,30.00,ENE,63,2.0,3.0,89,0.00,,FEW,0.47,202.00,VWS V14.01,2013-04-22 13:44:00,
2013-04-22 09:45:00,77.2,73.7,30.00,ENE,57,2.0,3.0,89,0.00,,FEW,0.47,204.00,VWS V14.01,2013-04-22 13:45:00,
2013-04-22 09:46:00,77.3,73.8,30.00,ESE,103,1.0,5.0,89,0.00,,FEW,0.47,206.00,VWS V14.01,2013-04-22 13:46:00,
2013-04-22 09:48:00,77.4,73.9,30.01,NE,38,4.0,5.0,89,0.00,,FEW,0.47,195.00,VWS V14.01,2013-04-22 13:48:00,
2013-04-22 09:49:00,77.5,74.0,30.01,ENE,69,4.0,7.0,89,0.00,,FEW,0.47,188.00,VWS V14.01,2013-04-22 13:49:00,
2013-04-22 09:50:00,77.5,74.0,30.01,NE,36,7.0,7.0,89,0.00,,FEW,0.47,186.00,VWS V14.01,2013-04-22 13:50:00,
2013-04-22 09:51:00,77.5,73.7,30.01,NE,53,6.0,7.0,88,0.00,,FEW,0.47,169.00,VWS V14.01,2013-04-22 13:51:00,
2013-04-22 09:53:00,77.6,73.8,30.01,ENE,61,7.0,7.0,88,0.00,,FEW,0.47,174.00,VWS V14.01,2013-04-22 13:53:00,
2013-04-22 09:54:00,77.6,73.8,30.01,NE,36,2.0,7.0,88,0.00,,FEW,0.47,165.00,VWS V14.01,2013-04-22 13:54:00,
2013-04-22 09:55:00,77.6,73.8,30.01,NE,36,2.0,7.0,88,0.00,,FEW,0.47,165.00,VWS V14.01,2013-04-22 13:55:00,
2013-04-22 09:57:00,77.7,73.9,30.01,NE,35,5.0,8.0,88,0.00,,FEW,0.47,141.00,VWS V14.01,2013-04-22 13:57:00,
2013-04-22 09:59:00,77.7,73.9,30.01,North,9,7.0,8.0,88,0.00,,FEW,0.47,213.00,VWS V14.01,2013-04-22 13:59:00,
2013-04-22 10:00:00,77.7,73.9,30.01,NE,44,2.0,8.0,88,0.00,,FEW,0.47,209.00,VWS V14.01,2013-04-22 14:00:00,
2013-04-22 10:02:00,77.8,74.0,30.00,ENE,64,3.0,8.0,88,0.00,,FEW,0.47,244.00,VWS V14.01,2013-04-22 14:02:00,
2013-04-22 10:04:00,77.8,74.0,30.00,NE,55,6.0,9.0,88,0.00,,FEW,0.47,267.00,VWS V14.01,2013-04-22 14:04:00,
2013-04-22 10:05:00,77.8,74.0,30.00,NE,53,2.0,9.0,88,0.00,,FEW,0.47,241.00,VWS V14.01,2013-04-22 14:05:00,
2013-04-22 10:07:00,77.9,74.1,30.00,ENE,59,3.0,9.0,88,0.00,,FEW,0.47,216.00,VWS V14.01,2013-04-22 14:07:00,
2013-04-22 10:09:00,77.9,74.1,30.00,ENE,59,0.0,9.0,88,0.00,,FEW,0.47,197.00,VWS V14.01,2013-04-22 14:09:00,
2013-04-22 10:10:00,77.9,74.1,30.00,ESE,106,1.0,9.0,88,0.00,,FEW,0.47,172.00,VWS V14.01,2013-04-22 14:10:00,
2013-04-22 10:12:00,78.0,74.2,30.00,ENE,67,2.0,9.0,88,0.00,,FEW,0.47,118.00,VWS V14.01,2013-04-22 14:12:00,
2013-04-22 10:14:00,78.0,74.2,30.00,NE,55,7.0,7.0,88,0.00,,FEW,0.47,109.00,VWS V14.01,2013-04-22 14:14:00,
2013-04-22 10:15:00,77.9,73.7,30.00,North,360,4.0,7.0,87,0.00,,FEW,0.47,104.00,VWS V14.01,2013-04-22 14:15:00,
2013-04-22 10:16:00,77.9,73.7,30.00,East,88,7.0,7.0,87,0.00,,FEW,0.47,104.00,VWS V14.01,2013-04-22 14:16:00,
2013-04-22 10:17:00,77.8,74.0,30.00,NE,55,5.0,8.0,88,0.00,,FEW,0.47,109.00,VWS V14.01,2013-04-22 14:17:00,
2013-04-22 10:19:00,77.8,74.0,30.00,NE,40,5.0,10.0,88,0.00,,FEW,0.47,95.00,VWS V14.01,2013-04-22 14:19:00,
2013-04-22 10:20:00,77.8,74.0,30.00,ESE,107,2.0,10.0,88,0.00,,FEW,0.47,79.00,VWS V14.01,2013-04-22 14:20:00,
2013-04-22 10:21:00,77.8,74.0,30.00,ENE,67,4.0,10.0,88,0.00,,FEW,0.47,79.00,VWS V14.01,2013-04-22 14:21:00,
2013-04-22 10:22:00,77.8,74.0,30.00,ENE,60,2.0,3.0,88,0.00,,FEW,0.47,74.00,VWS V14.01,2013-04-22 14:22:00,
2013-04-22 10:24:00,77.7,73.9,30.00,SE,136,3.0,8.0,88,0.00,,FEW,0.47,76.00,VWS V14.01,2013-04-22 14:24:00,
2013-04-22 10:26:00,77.6,73.8,30.00,ESE,122,3.0,8.0,88,0.00,,FEW,0.47,79.00,VWS V14.01,2013-04-22 14:26:00,
2013-04-22 10:27:00,77.5,73.7,30.00,SE,141,6.0,8.0,88,0.00,,FEW,0.47,81.00,VWS V14.01,2013-04-22 14:27:00,
2013-04-22 10:28:00,77.4,73.6,30.00,SSE,161,8.0,8.0,88,0.00,,FEW,0.47,90.00,VWS V14.01,2013-04-22 14:28:00,
2013-04-22 10:30:00,77.2,73.0,30.00,East,94,3.0,12.0,87,0.00,,FEW,0.47,100.00,VWS V14.01,2013-04-22 14:30:00,
2013-04-22 10:31:00,77.1,73.3,30.00,SE,143,7.0,12.0,88,0.00,,FEW,0.47,113.00,VWS V14.01,2013-04-22 14:31:00,
2013-04-22 10:32:00,76.8,73.0,30.02,ESE,114,12.0,13.0,88,0.00,,FEW,0.47,91.00,VWS V14.01,2013-04-22 14:32:00,
2013-04-22 10:33:00,76.6,72.8,30.02,SE,137,12.0,13.0,88,0.00,,FEW,0.47,98.00,VWS V14.01,2013-04-22 14:33:00,
2013-04-22 10:35:00,76.3,72.8,30.02,SE,133,7.0,13.0,89,0.00,,FEW,0.47,91.00,VWS V14.01,2013-04-22 14:35:00,
2013-04-22 10:36:00,76.2,72.7,30.02,ESE,109,5.0,13.0,89,0.00,,FEW,0.47,77.00,VWS V14.01,2013-04-22 14:36:00,
2013-04-22 10:37:00,76.1,72.6,30.02,SSE,161,3.0,13.0,89,0.00,,FEW,0.47,70.00,VWS V14.01,2013-04-22 14:37:00,
2013-04-22 10:39:00,76.0,72.9,30.02,SSE,166,8.0,13.0,90,0.01,,FEW,0.48,70.00,VWS V14.01,2013-04-22 14:39:00,
2013-04-22 10:40:00,75.9,72.8,30.02,ESE,109,3.0,13.0,90,0.02,,FEW,0.49,70.00,VWS V14.01,2013-04-22 14:40:00,
2013-04-22 10:41:00,75.9,72.8,30.02,SE,138,5.0,13.0,90,0.02,,FEW,0.49,74.00,VWS V14.01,2013-04-22 14:41:00,
2013-04-22 10:42:00,75.9,72.8,30.02,SE,140,5.0,13.0,90,0.03,,FEW,0.50,76.00,VWS V14.01,2013-04-22 14:42:00,
2013-04-22 10:44:00,75.8,73.0,30.02,SSE,166,6.0,9.0,91,0.03,,FEW,0.50,74.00,VWS V14.01,2013-04-22 14:44:00,
2013-04-22 10:45:00,75.9,73.1,30.02,SSW,192,4.0,9.0,91,0.03,,FEW,0.50,72.00,VWS V14.01,2013-04-22 14:45:00,
2013-04-22 10:46:00,75.9,73.1,30.02,SSE,166,3.0,9.0,91,0.03,,FEW,0.50,72.00,VWS V14.01,2013-04-22 14:46:00,
2013-04-22 10:47:00,75.9,73.1,30.02,SE,134,3.0,9.0,91,0.03,,FEW,0.50,69.00,VWS V14.01,2013-04-22 14:47:00,
2013-04-22 10:49:00,75.8,73.0,30.02,South,180,4.0,9.0,91,0.04,,FEW,0.51,67.00,VWS V14.01,2013-04-22 14:49:00,
2013-04-22 10:50:00,75.6,72.8,30.02,South,174,1.0,9.0,91,0.06,,FEW,0.53,69.00,VWS V14.01,2013-04-22 14:50:00,
2013-04-22 10:51:00,75.5,72.7,30.02,SE,131,3.0,9.0,91,0.07,,FEW,0.54,69.00,VWS V14.01,2013-04-22 14:51:00,
2013-04-22 10:52:00,75.5,72.7,30.02,SE,142,7.0,9.0,91,0.09,,FEW,0.56,72.00,VWS V14.01,2013-04-22 14:52:00,
2013-04-22 10:54:00,75.2,72.1,30.02,ESE,117,7.0,9.0,90,0.14,,FEW,0.62,81.00,VWS V14.01,2013-04-22 14:54:00,
2013-04-22 10:56:00,74.8,72.0,30.02,SSE,148,2.0,9.0,91,0.17,,FEW,0.64,86.00,VWS V14.01,2013-04-22 14:56:00,
2013-04-22 10:57:00,74.7,71.9,30.02,SE,126,6.0,9.0,91,0.18,,FEW,0.65,86.00,VWS V14.01,2013-04-22 14:57:00,
2013-04-22 10:59:00,74.3,71.5,30.02,SE,136,8.0,9.0,91,0.19,,FEW,0.66,88.00,VWS V14.01,2013-04-22 14:59:00,
2013-04-22 11:01:00,74.0,71.2,30.02,SE,135,3.0,9.0,91,0.20,,FEW,0.67,90.00,VWS V14.01,2013-04-22 15:01:00,
2013-04-22 11:02:00,74.0,71.2,30.02,ESE,123,5.0,9.0,91,0.21,,FEW,0.68,91.00,VWS V14.01,2013-04-22 15:02:00,
2013-04-22 11:04:00,73.9,71.4,30.02,ESE,115,4.0,4.0,92,0.22,,FEW,0.69,93.00,VWS V14.01,2013-04-22 15:04:00,
2013-04-22 11:06:00,73.9,71.4,30.02,ESE,119,0.0,4.0,92,0.23,,FEW,0.70,86.00,VWS V14.01,2013-04-22 15:06:00,
2013-04-22 11:07:00,73.9,71.4,30.02,NE,53,3.0,4.0,92,0.23,,FEW,0.70,84.00,VWS V14.01,2013-04-22 15:07:00,
2013-04-22 11:09:00,74.0,71.5,30.02,ENE,78,0.0,4.0,92,0.23,,FEW,0.70,83.00,VWS V14.01,2013-04-22 15:09:00,
2013-04-22 11:11:00,73.9,71.4,30.02,ESE,115,1.0,6.0,92,0.24,,FEW,0.72,83.00,VWS V14.01,2013-04-22 15:11:00,
2013-04-22 11:12:00,73.9,71.4,30.02,East,99,0.0,6.0,92,0.25,,FEW,0.72,84.00,VWS V14.01,2013-04-22 15:12:00,
2013-04-22 11:13:00,73.9,71.4,30.02,East,82,1.0,1.0,92,0.25,,FEW,0.72,83.00,VWS V14.01,2013-04-22 15:13:00,
2013-04-22 11:14:00,73.9,71.4,30.02,ENE,70,3.0,3.0,92,0.26,,FEW,0.73,83.00,VWS V14.01,2013-04-22 15:14:00,
2013-04-22 11:16:00,74.0,71.8,30.02,East,91,3.0,3.0,93,0.27,,FEW,0.74,86.00,VWS V14.01,2013-04-22 15:16:00,
2013-04-22 11:17:00,74.1,71.9,30.03,East,87,2.0,3.0,93,0.27,,FEW,0.74,91.00,VWS V14.01,2013-04-22 15:17:00,
2013-04-22 11:18:00,74.0,71.8,30.03,East,79,5.0,5.0,93,0.28,,FEW,0.75,91.00,VWS V14.01,2013-04-22 15:18:00,
2013-04-22 11:19:00,74.1,71.9,30.03,East,83,1.0,5.0,93,0.28,,FEW,0.75,97.00,VWS V14.01,2013-04-22 15:19:00,
2013-04-22 11:21:00,74.2,72.1,30.03,East,101,1.0,5.0,93,0.29,,FEW,0.76,105.00,VWS V14.01,2013-04-22 15:21:00,
2013-04-22 11:22:00,74.2,72.1,30.03,ENE,59,2.0,3.0,93,0.29,,FEW,0.76,111.00,VWS V14.01,2013-04-22 15:22:00,
2013-04-22 11:23:00,74.2,72.1,30.03,SE,130,2.0,5.0,93,0.29,,FEW,0.76,111.00,VWS V14.01,2013-04-22 15:23:00,
2013-04-22 11:24:00,74.2,72.1,30.03,ENE,63,2.0,5.0,93,0.29,,FEW,0.76,114.00,VWS V14.01,2013-04-22 15:24:00,
2013-04-22 11:26:00,74.2,72.1,30.03,ESE,105,2.0,5.0,93,0.30,,FEW,0.77,114.00,VWS V14.01,2013-04-22 15:26:00,
2013-04-22 11:27:00,74.2,72.1,30.03,ENE,59,0.0,5.0,93,0.30,,FEW,0.77,114.00,VWS V14.01,2013-04-22 15:27:00,
2013-04-22 11:28:00,74.2,72.1,30.03,NE,52,0.0,5.0,93,0.30,,FEW,0.77,114.00,VWS V14.01,2013-04-22 15:28:00,
2013-04-22 11:29:00,74.1,71.9,30.03,SE,140,0.0,5.0,93,0.31,,FEW,0.78,114.00,VWS V14.01,2013-04-22 15:29:00,
2013-04-22 11:32:00,74.1,71.9,30.03,East,101,0.0,5.0,93,0.31,,FEW,0.78,113.00,VWS V14.01,2013-04-22 15:32:00,
2013-04-22 11:33:00,74.1,71.9,30.03,East,80,1.0,1.0,93,0.31,,FEW,0.78,109.00,VWS V14.01,2013-04-22 15:33:00,
2013-04-22 11:34:00,74.1,71.9,30.03,East,86,0.0,2.0,93,0.31,,FEW,0.78,107.00,VWS V14.01,2013-04-22 15:34:00,
2013-04-22 11:37:00,74.2,72.1,30.03,ENE,59,1.0,2.0,93,0.31,,FEW,0.78,104.00,VWS V14.01,2013-04-22 15:37:00,
2013-04-22 11:38:00,74.2,72.4,30.03,ENE,63,0.0,2.0,94,0.31,,FEW,0.78,105.00,VWS V14.01,2013-04-22 15:38:00,
2013-04-22 11:39:00,74.3,72.5,30.03,ENE,75,2.0,2.0,94,0.31,,FEW,0.78,105.00,VWS V14.01,2013-04-22 15:39:00,
2013-04-22 11:42:00,74.4,72.6,30.03,ESE,107,0.0,3.0,94,0.32,,FEW,0.79,113.00,VWS V14.01,2013-04-22 15:42:00,
2013-04-22 11:43:00,74.4,72.6,30.03,East,95,0.0,0.0,94,0.29,,FEW,0.79,118.00,VWS V14.01,2013-04-22 15:43:00,
2013-04-22 11:44:00,74.4,72.6,30.03,SE,136,1.0,4.0,94,0.29,,FEW,0.79,127.00,VWS V14.01,2013-04-22 15:44:00,
2013-04-22 11:45:00,74.4,72.6,30.03,ENE,58,2.0,4.0,94,0.29,,FEW,0.79,139.00,VWS V14.01,2013-04-22 15:45:00,
2013-04-22 11:47:00,74.3,72.2,30.02,ENE,74,1.0,4.0,93,0.29,,FEW,0.79,183.00,VWS V14.01,2013-04-22 15:47:00,
2013-04-22 11:48:00,74.3,72.2,30.02,ESE,113,3.0,4.0,93,0.29,,FEW,0.79,183.00,VWS V14.01,2013-04-22 15:48:00,
2013-04-22 11:49:00,74.3,72.2,30.02,ENE,59,1.0,4.0,93,0.29,,FEW,0.79,200.00,VWS V14.01,2013-04-22 15:49:00,
2013-04-22 11:50:00,74.3,72.2,30.02,ENE,67,2.0,4.0,93,0.29,,FEW,0.79,200.00,VWS V14.01,2013-04-22 15:50:00,
2013-04-22 11:52:00,74.6,72.4,30.02,East,92,3.0,4.0,93,0.29,,FEW,0.79,221.00,VWS V14.01,2013-04-22 15:52:00,
2013-04-22 11:53:00,74.6,72.4,30.02,East,82,0.0,2.0,93,0.21,,FEW,0.79,229.00,VWS V14.01,2013-04-22 15:53:00,
2013-04-22 11:54:00,74.8,72.6,30.02,ESE,121,1.0,2.0,93,0.21,,FEW,0.79,232.00,VWS V14.01,2013-04-22 15:54:00,
2013-04-22 11:55:00,74.8,72.6,30.02,ESE,121,0.0,2.0,93,0.21,,FEW,0.79,232.00,VWS V14.01,2013-04-22 15:55:00,
2013-04-22 11:57:00,75.2,73.0,30.02,ENE,63,1.0,3.0,93,0.21,,FEW,0.79,221.00,VWS V14.01,2013-04-22 15:57:00,
2013-04-22 11:58:00,75.3,73.1,30.02,SE,128,0.0,3.0,93,0.21,,FEW,0.79,214.00,VWS V14.01,2013-04-22 15:58:00,
2013-04-22 11:59:00,75.6,73.4,30.02,ESE,122,2.0,3.0,93,0.21,,FEW,0.79,211.00,VWS V14.01,2013-04-22 15:59:00,
2013-04-22 12:00:00,75.7,73.5,30.02,SE,125,1.0,3.0,93,0.21,,FEW,0.79,209.00,VWS V14.01,2013-04-22 16:00:00,
2013-04-22 12:02:00,75.9,73.7,30.02,East,84,0.0,3.0,93,0.21,,FEW,0.79,206.00,VWS V14.01,2013-04-22 16:02:00,
2013-04-22 12:03:00,76.0,73.8,30.02,East,84,0.0,0.0,93,0.11,,FEW,0.79,207.00,VWS V14.01,2013-04-22 16:03:00,
2013-04-22 12:05:00,76.1,73.9,30.02,ENE,65,0.0,2.0,93,0.11,,FEW,0.79,214.00,VWS V14.01,2013-04-22 16:05:00,
2013-04-22 12:08:00,76.4,74.2,30.02,East,92,0.0,2.0,93,0.11,,FEW,0.79,232.00,VWS V14.01,2013-04-22 16:08:00,
2013-04-22 12:10:00,76.3,74.1,30.02,SE,128,1.0,3.0,93,0.11,,FEW,0.79,250.00,VWS V14.01,2013-04-22 16:10:00,
2013-04-22 12:13:00,76.0,73.2,30.02,East,90,2.0,3.0,91,0.07,,FEW,0.79,272.00,VWS V14.01,2013-04-22 16:13:00,
2013-04-22 12:14:00,76.0,73.2,30.02,ESE,123,3.0,3.0,91,0.07,,FEW,0.79,285.00,VWS V14.01,2013-04-22 16:14:00,
2013-04-22 12:15:00,76.0,73.2,30.02,East,100,2.0,3.0,91,0.07,,FEW,0.79,285.00,VWS V14.01,2013-04-22 16:15:00,
2013-04-22 12:18:00,76.2,73.4,30.01,ENE,74,1.0,4.0,91,0.07,,FEW,0.79,292.00,VWS V14.01,2013-04-22 16:18:00,
2013-04-22 12:19:00,76.3,73.5,30.01,ESE,115,0.0,4.0,91,0.07,,FEW,0.79,288.00,VWS V14.01,2013-04-22 16:19:00,
2013-04-22 12:20:00,76.3,73.2,30.01,ESE,102,2.0,4.0,90,0.07,,FEW,0.79,288.00,VWS V14.01,2013-04-22 16:20:00,
2013-04-22 12:23:00,76.6,73.4,30.01,East,93,1.0,2.0,90,0.03,,FEW,0.79,279.00,VWS V14.01,2013-04-22 16:23:00,
2013-04-22 12:24:00,76.6,73.1,30.01,ENE,67,1.0,2.0,89,0.03,,FEW,0.79,283.00,VWS V14.01,2013-04-22 16:24:00,
2013-04-22 12:25:00,76.6,73.1,30.01,East,96,0.0,2.0,89,0.03,,FEW,0.79,287.00,VWS V14.01,2013-04-22 16:25:00,
2013-04-22 12:26:00,76.7,73.2,30.01,East,96,0.0,2.0,89,0.03,,FEW,0.79,290.00,VWS V14.01,2013-04-22 16:26:00,
2013-04-22 12:28:00,76.9,73.4,30.01,ESE,111,0.0,5.0,89,0.03,,FEW,0.79,297.00,VWS V14.01,2013-04-22 16:28:00,
2013-04-22 12:29:00,76.9,73.1,30.01,ESE,113,1.0,5.0,88,0.03,,FEW,0.79,301.00,VWS V14.01,2013-04-22 16:29:00,
2013-04-22 12:30:00,76.9,73.1,30.01,SSE,157,4.0,5.0,88,0.03,,FEW,0.79,304.00,VWS V14.01,2013-04-22 16:30:00,
2013-04-22 12:31:00,76.9,72.7,30.01,SE,143,3.0,5.0,87,0.03,,FEW,0.79,304.00,VWS V14.01,2013-04-22 16:31:00,
2013-04-22 12:33:00,77.1,73.3,30.01,ESE,119,1.0,3.0,88,0.01,,FEW,0.79,302.00,VWS V14.01,2013-04-22 16:33:00,
2013-04-22 12:34:00,77.2,73.0,30.01,ESE,109,0.0,4.0,87,0.01,,FEW,0.79,297.00,VWS V14.01,2013-04-22 16:34:00,
2013-04-22 12:36:00,77.4,73.2,30.01,ESE,116,1.0,4.0,87,0.01,,FEW,0.79,297.00,VWS V14.01,2013-04-22 16:36:00,
2013-04-22 12:38:00,77.5,73.3,30.01,East,101,0.0,4.0,87,0.01,,FEW,0.79,313.00,VWS V14.01,2013-04-22 16:38:00,
2013-04-22 12:39:00,77.7,73.9,30.01,East,87,0.0,4.0,88,0.01,,FEW,0.79,322.00,VWS V14.01,2013-04-22 16:39:00,
2013-04-22 12:41:00,77.9,74.4,30.01,East,96,2.0,4.0,89,0.01,,FEW,0.79,339.00,VWS V14.01,2013-04-22 16:41:00,
2013-04-22 12:43:00,77.9,73.7,30.01,SE,132,0.0,3.0,87,0.00,,FEW,0.79,374.00,VWS V14.01,2013-04-22 16:43:00,
2013-04-22 12:44:00,77.9,73.7,30.01,SE,132,0.0,3.0,87,0.00,,FEW,0.79,374.00,VWS V14.01,2013-04-22 16:44:00,
2013-04-22 12:46:00,77.9,73.7,30.01,SE,144,3.0,5.0,87,0.00,,FEW,0.79,464.00,VWS V14.01,2013-04-22 16:46:00,
2013-04-22 12:48:00,78.0,73.8,30.00,East,98,3.0,5.0,87,0.00,,FEW,0.79,464.00,VWS V14.01,2013-04-22 16:48:00,
2013-04-22 12:49:00,78.1,73.9,30.00,SSE,148,3.0,5.0,87,0.00,,FEW,0.79,856.00,VWS V14.01,2013-04-22 16:49:00,
2013-04-22 12:51:00,79.3,75.1,30.00,ESE,123,1.0,5.0,87,0.00,,FEW,0.79,1334.00,VWS V14.01,2013-04-22 16:51:00,
2013-04-22 12:52:00,79.4,75.2,30.00,SE,127,4.0,5.0,87,0.00,,FEW,0.79,1334.00,VWS V14.01,2013-04-22 16:52:00,
2013-04-22 12:53:00,79.9,75.0,30.00,East,97,7.0,8.0,85,0.00,,FEW,0.79,1206.00,VWS V14.01,2013-04-22 16:53:00,
2013-04-22 12:54:00,79.9,75.0,30.00,SE,124,6.0,8.0,85,0.00,,FEW,0.79,1206.00,VWS V14.01,2013-04-22 16:54:00,
2013-04-22 12:57:00,79.9,74.6,30.00,SSE,153,3.0,8.0,84,0.00,,FEW,0.79,462.00,VWS V14.01,2013-04-22 16:57:00,
2013-04-22 12:59:00,79.9,75.0,30.00,East,101,1.0,8.0,85,0.00,,FEW,0.79,404.00,VWS V14.01,2013-04-22 16:59:00,
2013-04-22 13:00:00,79.9,74.6,30.00,ESE,118,1.0,8.0,84,0.00,,FEW,0.79,383.00,VWS V14.01,2013-04-22 17:00:00,
2013-04-22 13:02:00,79.8,74.2,30.00,SE,146,3.0,8.0,83,0.00,,FEW,0.79,388.00,VWS V14.01,2013-04-22 17:02:00,
2013-04-22 13:04:00,79.4,73.8,30.00,SE,134,3.0,9.0,83,0.00,,FEW,0.79,396.00,VWS V14.01,2013-04-22 17:04:00,
2013-04-22 13:05:00,79.4,73.8,30.00,ESE,103,3.0,9.0,83,0.00,,FEW,0.79,406.00,VWS V14.01,2013-04-22 17:05:00,
2013-04-22 13:07:00,79.4,74.2,30.00,SSE,150,5.0,9.0,84,0.00,,FEW,0.79,513.00,VWS V14.01,2013-04-22 17:07:00,
2013-04-22 13:09:00,79.3,73.7,30.00,ESE,122,4.0,9.0,83,0.00,,FEW,0.79,513.00,VWS V14.01,2013-04-22 17:09:00,
2013-04-22 13:10:00,79.4,74.2,30.00,ESE,105,4.0,9.0,84,0.00,,FEW,0.79,513.00,VWS V14.01,2013-04-22 17:10:00,
2013-04-22 13:12:00,79.4,74.2,30.00,SSE,150,4.0,9.0,84,0.00,,FEW,0.79,406.00,VWS V14.01,2013-04-22 17:12:00,
2013-04-22 13:14:00,79.4,73.8,30.00,SE,140,6.0,6.0,83,0.00,,FEW,0.79,353.00,VWS V14.01,2013-04-22 17:14:00,
2013-04-22 13:15:00,79.3,73.7,30.00,SE,132,5.0,7.0,83,0.00,,FEW,0.79,334.00,VWS V14.01,2013-04-22 17:15:00,
2013-04-22 13:16:00,79.3,74.1,30.00,East,82,0.0,7.0,84,0.00,,FEW,0.79,323.00,VWS V14.01,2013-04-22 17:16:00,
2013-04-22 13:17:00,79.5,74.2,29.99,ESE,111,2.0,7.0,84,0.00,,FEW,0.79,309.00,VWS V14.01,2013-04-22 17:17:00,
2013-04-22 13:19:00,79.5,74.2,29.99,ESE,121,1.0,7.0,84,0.00,,FEW,0.79,279.00,VWS V14.01,2013-04-22 17:19:00,
2013-04-22 13:20:00,79.4,74.2,29.99,SE,126,1.0,7.0,84,0.00,,FEW,0.79,244.00,VWS V14.01,2013-04-22 17:20:00,
2013-04-22 13:21:00,79.4,74.2,29.99,SE,124,1.0,7.0,84,0.00,,FEW,0.79,244.00,VWS V14.01,2013-04-22 17:21:00,
2013-04-22 13:22:00,79.5,74.6,29.99,SE,128,1.0,7.0,85,0.00,,FEW,0.79,227.00,VWS V14.01,2013-04-22 17:22:00,
2013-04-22 13:24:00,79.5,74.2,29.99,ESE,119,0.0,2.0,84,0.00,,FEW,0.79,188.00,VWS V14.01,2013-04-22 17:24:00,
2013-04-22 13:25:00,79.5,74.2,29.99,SE,129,1.0,2.0,84,0.00,,FEW,0.79,165.00,VWS V14.01,2013-04-22 17:25:00,
2013-04-22 13:26:00,79.5,74.6,29.99,SE,137,3.0,3.0,85,0.00,,FEW,0.79,153.00,VWS V14.01,2013-04-22 17:26:00,
2013-04-22 13:27:00,79.5,74.2,29.99,SE,130,0.0,3.0,84,0.00,,FEW,0.79,155.00,VWS V14.01,2013-04-22 17:27:00,
2013-04-22 13:29:00,79.4,74.2,29.99,SSE,153,3.0,4.0,84,0.00,,FEW,0.79,176.00,VWS V14.01,2013-04-22 17:29:00,
2013-04-22 13:30:00,79.3,74.1,29.99,SE,142,4.0,7.0,84,0.00,,FEW,0.79,192.00,VWS V14.01,2013-04-22 17:30:00,
2013-04-22 13:31:00,79.3,74.1,29.99,SE,142,2.0,7.0,84,0.00,,FEW,0.79,211.00,VWS V14.01,2013-04-22 17:31:00,
2013-04-22 13:32:00,79.3,74.1,29.99,SSE,150,2.0,7.0,84,0.00,,FEW,0.79,221.00,VWS V14.01,2013-04-22 17:32:00,
2013-04-22 13:34:00,79.2,73.9,29.99,ESE,122,2.0,5.0,84,0.00,,FEW,0.79,211.00,VWS V14.01,2013-04-22 17:34:00,
2013-04-22 13:35:00,79.2,73.9,29.99,ESE,107,0.0,5.0,84,0.00,,FEW,0.79,197.00,VWS V14.01,2013-04-22 17:35:00,
2013-04-22 13:36:00,79.2,74.3,29.99,ESE,117,4.0,5.0,85,0.00,,FEW,0.79,176.00,VWS V14.01,2013-04-22 17:36:00,
2013-04-22 13:37:00,79.2,73.9,29.99,South,169,4.0,5.0,84,0.00,,FEW,0.79,142.00,VWS V14.01,2013-04-22 17:37:00,
2013-04-22 13:38:00,79.2,73.9,29.99,SE,135,5.0,5.0,84,0.00,,FEW,0.79,142.00,VWS V14.01,2013-04-22 17:38:00,
2013-04-22 13:39:00,79.1,73.8,29.99,SE,138,1.0,5.0,84,0.00,,FEW,0.79,137.00,VWS V14.01,2013-04-22 17:39:00,
2013-04-22 13:40:00,79.1,73.8,29.99,SSE,154,1.0,5.0,84,0.00,,FEW,0.79,132.00,VWS V14.01,2013-04-22 17:40:00,
2013-04-22 13:41:00,79.1,73.8,29.99,ESE,118,1.0,5.0,84,0.00,,FEW,0.79,130.00,VWS V14.01,2013-04-22 17:41:00,
2013-04-22 13:43:00,79.1,74.2,29.99,ESE,110,1.0,2.0,85,0.00,,FEW,0.79,127.00,VWS V14.01,2013-04-22 17:43:00,
2013-04-22 13:44:00,79.1,73.8,29.99,SSE,150,2.0,3.0,84,0.00,,FEW,0.79,118.00,VWS V14.01,2013-04-22 17:44:00,
2013-04-22 13:45:00,79.1,74.2,29.99,ESE,105,4.0,5.0,85,0.00,,FEW,0.79,118.00,VWS V14.01,2013-04-22 17:45:00,
2013-04-22 13:46:00,79.1,73.8,29.99,ESE,115,3.0,5.0,84,0.00,,FEW,0.79,120.00,VWS V14.01,2013-04-22 17:46:00,
2013-04-22 13:48:00,79.1,73.8,29.99,SE,128,1.0,5.0,84,0.00,,FEW,0.79,125.00,VWS V14.01,2013-04-22 17:48:00,
2013-04-22 13:50:00,79.1,73.8,29.99,SE,139,0.0,5.0,84,0.00,,FEW,0.79,139.00,VWS V14.01,2013-04-22 17:50:00,
2013-04-22 13:51:00,79.1,73.8,29.99,East,98,0.0,5.0,84,0.00,,FEW,0.79,134.00,VWS V14.01,2013-04-22 17:51:00,
2013-04-22 13:53:00,79.2,73.9,29.99,East,99,0.0,0.0,84,0.00,,FEW,0.79,113.00,VWS V14.01,2013-04-22 17:53:00,
2013-04-22 13:55:00,79.1,73.8,29.99,East,98,0.0,1.0,84,0.00,,FEW,0.79,100.00,VWS V14.01,2013-04-22 17:55:00,
2013-04-22 13:56:00,79.1,73.8,29.99,East,98,0.0,1.0,84,0.00,,FEW,0.79,104.00,VWS V14.01,2013-04-22 17:56:00,
2013-04-22 13:58:00,79.1,73.8,29.99,East,98,0.0,1.0,84,0.00,,FEW,0.79,109.00,VWS V14.01,2013-04-22 17:58:00,
2013-04-22 14:00:00,79.2,74.3,29.99,ENE,66,3.0,3.0,85,0.00,,FEW,0.79,121.00,VWS V14.01,2013-04-22 18:00:00,
2013-04-22 14:01:00,79.2,74.3,29.99,ENE,67,2.0,3.0,85,0.00,,FEW,0.79,141.00,VWS V14.01,2013-04-22 18:01:00,
2013-04-22 14:03:00,79.1,73.8,29.99,ESE,123,1.0,3.0,84,0.00,,FEW,0.79,155.00,VWS V14.01,2013-04-22 18:03:00,
2013-04-22 14:05:00,79.1,73.8,29.99,ESE,103,1.0,3.0,84,0.00,,FEW,0.79,185.00,VWS V14.01,2013-04-22 18:05:00,
2013-04-22 14:07:00,79.1,73.8,29.99,SE,131,2.0,3.0,84,0.00,,FEW,0.79,227.00,VWS V14.01,2013-04-22 18:07:00,
2013-04-22 14:08:00,79.1,73.8,29.99,ESE,105,2.0,3.0,84,0.00,,FEW,0.79,276.00,VWS V14.01,2013-04-22 18:08:00,
2013-04-22 14:09:00,79.1,73.8,29.99,ESE,105,4.0,4.0,84,0.00,,FEW,0.79,276.00,VWS V14.01,2013-04-22 18:09:00,
2013-04-22 14:10:00,79.1,73.8,29.99,ESE,106,2.0,4.0,84,0.00,,FEW,0.79,330.00,VWS V14.01,2013-04-22 18:10:00,
2013-04-22 14:11:00,79.1,74.2,29.99,ESE,106,1.0,4.0,85,0.00,,FEW,0.79,330.00,VWS V14.01,2013-04-22 18:11:00,
2013-04-22 14:12:00,79.2,74.3,29.99,SE,136,3.0,5.0,85,0.00,,FEW,0.79,401.00,VWS V14.01,2013-04-22 18:12:00,
2013-04-22 14:13:00,79.2,73.6,29.99,SSE,147,1.0,3.0,83,0.00,,FEW,0.79,448.00,VWS V14.01,2013-04-22 18:13:00,
2013-04-22 14:14:00,79.2,73.6,29.99,ESE,114,2.0,3.0,83,0.00,,FEW,0.79,448.00,VWS V14.01,2013-04-22 18:14:00,
2013-04-22 14:15:00,79.3,74.1,29.99,ESE,114,1.0,3.0,84,0.00,,FEW,0.79,462.00,VWS V14.01,2013-04-22 18:15:00,
2013-04-22 14:16:00,79.4,73.8,29.99,ESE,114,0.0,3.0,83,0.00,,FEW,0.79,482.00,VWS V14.01,2013-04-22 18:16:00,
2013-04-22 14:17:00,79.5,73.9,29.98,ESE,109,1.0,3.0,83,0.00,,FEW,0.79,504.00,VWS V14.01,2013-04-22 18:17:00,
2013-04-22 14:18:00,79.8,73.8,29.98,ESE,123,1.0,3.0,82,0.00,,FEW,0.79,527.00,VWS V14.01,2013-04-22 18:18:00,
2013-04-22 14:19:00,79.8,73.8,29.98,ESE,115,1.0,3.0,82,0.00,,FEW,0.79,550.00,VWS V14.01,2013-04-22 18:19:00,
2013-04-22 14:20:00,80.0,74.0,29.98,ESE,115,1.0,3.0,82,0.00,,FEW,0.79,559.00,VWS V14.01,2013-04-22 18:20:00,
2013-04-22 14:21:00,80.1,74.1,29.98,ESE,115,0.0,3.0,82,0.00,,FEW,0.79,555.00,VWS V14.01,2013-04-22 18:21:00,
2013-04-22 14:22:00,80.4,74.8,29.98,ESE,115,1.0,3.0,83,0.00,,FEW,0.79,550.00,VWS V14.01,2013-04-22 18:22:00,
2013-04-22 14:23:00,80.6,74.6,29.98,SE,135,0.0,1.0,82,0.00,,FEW,0.79,563.00,VWS V14.01,2013-04-22 18:23:00,
2013-04-22 14:24:00,80.6,74.6,29.98,SE,135,1.0,1.0,82,0.00,,FEW,0.79,563.00,VWS V14.01,2013-04-22 18:24:00,
2013-04-22 14:25:00,80.9,74.9,29.98,ESE,112,1.0,1.0,82,0.00,,FEW,0.79,592.00,VWS V14.01,2013-04-22 18:25:00,
2013-04-22 14:26:00,80.9,74.9,29.98,ESE,112,1.0,1.0,82,0.00,,FEW,0.79,592.00,VWS V14.01,2013-04-22 18:26:00,
2013-04-22 14:27:00,81.1,74.7,29.98,SSE,151,3.0,3.0,81,0.00,,FEW,0.79,652.00,VWS V14.01,2013-04-22 18:27:00,
2013-04-22 14:29:00,81.0,74.2,29.98,ESE,121,3.0,5.0,80,0.00,,FEW,0.79,652.00,VWS V14.01,2013-04-22 18:29:00,
2013-04-22 14:30:00,81.0,74.2,29.98,ESE,115,1.0,5.0,80,0.00,,FEW,0.79,571.00,VWS V14.01,2013-04-22 18:30:00,
2013-04-22 14:31:00,81.0,74.6,29.98,ESE,115,1.0,5.0,81,0.00,,FEW,0.79,571.00,VWS V14.01,2013-04-22 18:31:00,
2013-04-22 14:32:00,81.0,74.2,29.97,ESE,115,0.0,5.0,80,0.00,,FEW,0.79,550.00,VWS V14.01,2013-04-22 18:32:00,
2013-04-22 14:34:00,81.2,74.8,29.97,ENE,72,3.0,3.0,81,0.00,,FEW,0.79,577.00,VWS V14.01,2013-04-22 18:34:00,
2013-04-22 14:35:00,81.2,74.4,29.97,East,94,0.0,3.0,80,0.00,,FEW,0.79,591.00,VWS V14.01,2013-04-22 18:35:00,
2013-04-22 14:36:00,81.1,74.3,29.97,East,94,0.0,3.0,80,0.00,,FEW,0.79,533.00,VWS V14.01,2013-04-22 18:36:00,
2013-04-22 14:37:00,81.2,74.4,29.97,East,94,1.0,3.0,80,0.00,,FEW,0.79,501.00,VWS V14.01,2013-04-22 18:37:00,
2013-04-22 14:39:00,81.4,75.0,29.97,East,82,0.0,3.0,81,0.00,,FEW,0.79,496.00,VWS V14.01,2013-04-22 18:39:00,
2013-04-22 14:41:00,81.6,74.8,29.97,ESE,118,3.0,3.0,80,0.00,,FEW,0.79,489.00,VWS V14.01,2013-04-22 18:41:00,
2013-04-22 14:42:00,81.6,74.5,29.97,SE,142,2.0,3.0,79,0.00,,FEW,0.79,503.00,VWS V14.01,2013-04-22 18:42:00,
2013-04-22 14:44:00,81.2,73.7,29.97,SSE,156,3.0,5.0,78,0.00,,FEW,0.79,527.00,VWS V14.01,2013-04-22 18:44:00,
2013-04-22 14:46:00,80.9,73.4,29.97,SSE,155,3.0,6.0,78,0.00,,FEW,0.79,561.00,VWS V14.01,2013-04-22 18:46:00,
2013-04-22 14:47:00,80.8,73.7,29.96,ESE,123,1.0,6.0,79,0.00,,FEW,0.79,603.00,VWS V14.01,2013-04-22 18:47:00,
2013-04-22 14:49:00,81.1,74.3,29.96,ESE,123,1.0,6.0,80,0.00,,FEW,0.79,793.00,VWS V14.01,2013-04-22 18:49:00,
2013-04-22 14:51:00,81.3,73.8,29.96,SE,126,3.0,6.0,78,0.00,,FEW,0.79,870.00,VWS V14.01,2013-04-22 18:51:00,
2013-04-22 14:52:00,81.4,74.3,29.96,ESE,112,3.0,6.0,79,0.00,,FEW,0.79,870.00,VWS V14.01,2013-04-22 18:52:00,
2013-04-22 14:54:00,81.4,73.9,29.96,ESE,122,4.0,6.0,78,0.00,,FEW,0.79,1130.00,VWS V14.01,2013-04-22 18:54:00,
2013-04-22 14:55:00,81.4,74.3,29.96,SE,129,2.0,6.0,79,0.00,,FEW,0.79,1143.00,VWS V14.01,2013-04-22 18:55:00,
2013-04-22 14:56:00,81.5,74.0,29.96,ESE,117,2.0,6.0,78,0.00,,FEW,0.79,1143.00,VWS V14.01,2013-04-22 18:56:00,
2013-04-22 14:58:00,81.7,74.2,29.96,SE,132,4.0,6.0,78,0.00,,FEW,0.79,1146.00,VWS V14.01,2013-04-22 18:58:00,
2013-04-22 15:00:00,81.9,74.8,29.96,ESE,112,0.0,6.0,79,0.00,,FEW,0.79,1146.00,VWS V14.01,2013-04-22 19:00:00,
2013-04-22 15:01:00,82.1,74.9,29.96,SE,137,5.0,6.0,79,0.00,,FEW,0.79,856.00,VWS V14.01,2013-04-22 19:01:00,
2013-04-22 15:03:00,81.7,73.8,29.96,SE,126,2.0,4.0,77,0.00,,FEW,0.79,682.00,VWS V14.01,2013-04-22 19:03:00,
2013-04-22 15:05:00,81.9,74.8,29.96,SE,134,1.0,5.0,79,0.00,,FEW,0.79,657.00,VWS V14.01,2013-04-22 19:05:00,
2013-04-22 15:06:00,82.0,74.8,29.96,SE,131,2.0,5.0,79,0.00,,FEW,0.79,657.00,VWS V14.01,2013-04-22 19:06:00,
2013-04-22 15:08:00,81.9,74.8,29.96,SE,145,4.0,7.0,79,0.00,,FEW,0.79,930.00,VWS V14.01,2013-04-22 19:08:00,
2013-04-22 15:10:00,81.9,74.4,29.96,South,178,4.0,7.0,78,0.00,,FEW,0.79,930.00,VWS V14.01,2013-04-22 19:10:00,
2013-04-22 15:11:00,82.1,74.6,29.96,SSE,158,5.0,7.0,78,0.00,,FEW,0.79,930.00,VWS V14.01,2013-04-22 19:11:00,
2013-04-22 15:12:00,82.1,74.6,29.96,SSE,150,3.0,7.0,78,0.00,,FEW,0.79,930.00,VWS V14.01,2013-04-22 19:12:00,
2013-04-22 15:13:00,82.1,74.6,29.96,SSE,153,2.0,4.0,78,0.00,,FEW,0.79,555.00,VWS V14.01,2013-04-22 19:13:00,
2013-04-22 15:15:00,82.2,74.7,29.96,ESE,110,0.0,5.0,78,0.00,,FEW,0.79,555.00,VWS V14.01,2013-04-22 19:15:00,
2013-04-22 15:16:00,82.3,74.8,29.96,SE,132,1.0,5.0,78,0.00,,FEW,0.79,555.00,VWS V14.01,2013-04-22 19:16:00,
2013-04-22 15:17:00,82.5,74.9,29.94,SE,132,1.0,5.0,78,0.00,,FEW,0.79,555.00,VWS V14.01,2013-04-22 19:17:00,
2013-04-22 15:18:00,82.6,75.1,29.94,SSE,151,4.0,6.0,78,0.00,,FEW,0.79,555.00,VWS V14.01,2013-04-22 19:18:00,
2013-04-22 15:20:00,82.7,75.2,29.94,SE,142,4.0,6.0,78,0.00,,FEW,0.79,555.00,VWS V14.01,2013-04-22 19:20:00,
2013-04-22 15:21:00,82.5,74.2,29.94,South,171,2.0,6.0,76,0.00,,FEW,0.79,555.00,VWS V14.01,2013-04-22 19:21:00,
2013-04-22 15:22:00,82.3,74.4,29.94,SE,133,2.0,6.0,77,0.00,,FEW,0.79,555.00,VWS V14.01,2013-04-22 19:22:00,
2013-04-22 15:23:00,82.1,74.6,29.94,SE,130,5.0,5.0,78,0.00,,FEW,0.79,555.00,VWS V14.01,2013-04-22 19:23:00,
2013-04-22 15:25:00,82.1,74.6,29.94,SSE,158,2.0,5.0,78,0.00,,FEW,0.79,564.00,VWS V14.01,2013-04-22 19:25:00,
2013-04-22 15:26:00,82.1,74.6,29.94,East,99,1.0,5.0,78,0.00,,FEW,0.79,564.00,VWS V14.01,2013-04-22 19:26:00,
2013-04-22 15:27:00,82.2,75.0,29.94,East,92,1.0,5.0,79,0.00,,FEW,0.79,564.00,VWS V14.01,2013-04-22 19:27:00,
2013-04-22 15:29:00,82.2,74.7,29.94,ESE,120,2.0,5.0,78,0.00,,FEW,0.79,427.00,VWS V14.01,2013-04-22 19:29:00,
2013-04-22 15:30:00,82.1,74.6,29.94,SE,146,5.0,5.0,78,0.00,,FEW,0.79,436.00,VWS V14.01,2013-04-22 19:30:00,
2013-04-22 15:31:00,82.0,74.5,29.94,ESE,122,0.0,5.0,78,0.00,,FEW,0.79,418.00,VWS V14.01,2013-04-22 19:31:00,
2013-04-22 15:32:00,81.8,74.3,29.94,SE,139,4.0,5.0,78,0.00,,FEW,0.79,329.00,VWS V14.01,2013-04-22 19:32:00,
2013-04-22 15:34:00,81.6,74.1,29.94,ESE,107,2.0,5.0,78,0.00,,FEW,0.79,322.00,VWS V14.01,2013-04-22 19:34:00,
2013-04-22 15:35:00,81.4,73.9,29.94,ESE,120,3.0,7.0,78,0.00,,FEW,0.79,316.00,VWS V14.01,2013-04-22 19:35:00,
2013-04-22 15:36:00,81.2,73.7,29.94,SE,142,4.0,7.0,78,0.00,,FEW,0.79,366.00,VWS V14.01,2013-04-22 19:36:00,
2013-04-22 15:37:00,80.8,73.3,29.94,SSE,151,5.0,7.0,78,0.00,,FEW,0.79,582.00,VWS V14.01,2013-04-22 19:37:00,
2013-04-22 15:39:00,80.5,73.4,29.94,ESE,121,4.0,7.0,79,0.00,,FEW,0.79,636.00,VWS V14.01,2013-04-22 19:39:00,
2013-04-22 15:40:00,80.5,73.8,29.94,ESE,110,1.0,7.0,80,0.00,,FEW,0.79,636.00,VWS V14.01,2013-04-22 19:40:00,
2013-04-22 15:41:00,80.7,74.3,29.94,ESE,110,1.0,7.0,81,0.00,,FEW,0.79,636.00,VWS V14.01,2013-04-22 19:41:00,
2013-04-22 15:43:00,81.1,74.7,29.94,SE,134,2.0,2.0,81,0.00,,FEW,0.79,636.00,VWS V14.01,2013-04-22 19:43:00,
2013-04-22 15:44:00,81.5,74.4,29.94,ESE,106,2.0,5.0,79,0.00,,FEW,0.79,884.00,VWS V14.01,2013-04-22 19:44:00,
2013-04-22 15:45:00,81.8,75.0,29.94,East,86,3.0,5.0,80,0.00,,FEW,0.79,854.00,VWS V14.01,2013-04-22 19:45:00,
2013-04-22 15:46:00,82.0,74.8,29.94,ESE,118,2.0,5.0,79,0.00,,FEW,0.79,830.00,VWS V14.01,2013-04-22 19:46:00,
2013-04-22 15:48:00,82.3,74.8,29.93,SE,136,1.0,5.0,78,0.00,,FEW,0.79,803.00,VWS V14.01,2013-04-22 19:48:00,
2013-04-22 15:49:00,82.6,74.7,29.93,ESE,119,2.0,5.0,77,0.00,,FEW,0.79,796.00,VWS V14.01,2013-04-22 19:49:00,
2013-04-22 15:50:00,82.5,74.6,29.93,East,87,1.0,5.0,77,0.00,,FEW,0.79,789.00,VWS V14.01,2013-04-22 19:50:00,
2013-04-22 15:51:00,82.6,74.7,29.93,SE,128,0.0,5.0,77,0.00,,FEW,0.79,786.00,VWS V14.01,2013-04-22 19:51:00,
2013-04-22 15:53:00,82.6,74.7,29.93,ESE,117,3.0,3.0,77,0.00,,FEW,0.79,777.00,VWS V14.01,2013-04-22 19:53:00,
2013-04-22 15:54:00,82.3,74.0,29.93,ESE,123,2.0,6.0,76,0.00,,FEW,0.79,772.00,VWS V14.01,2013-04-22 19:54:00,
2013-04-22 15:55:00,82.2,74.3,29.93,SE,128,2.0,6.0,77,0.00,,FEW,0.79,772.00,VWS V14.01,2013-04-22 19:55:00,
2013-04-22 15:56:00,82.1,74.2,29.93,ESE,115,2.0,6.0,77,0.00,,FEW,0.79,768.00,VWS V14.01,2013-04-22 19:56:00,
2013-04-22 15:58:00,82.0,74.5,29.93,SE,128,2.0,6.0,78,0.00,,FEW,0.79,742.00,VWS V14.01,2013-04-22 19:58:00,
2013-04-22 16:00:00,82.0,74.5,29.93,South,188,4.0,6.0,78,0.00,,FEW,0.79,761.00,VWS V14.01,2013-04-22 20:00:00,
2013-04-22 16:01:00,81.9,74.0,29.93,SE,138,4.0,6.0,77,0.00,,FEW,0.79,751.00,VWS V14.01,2013-04-22 20:01:00,
2013-04-22 16:02:00,81.9,74.4,29.92,ESE,120,3.0,6.0,78,0.00,,FEW,0.79,751.00,VWS V14.01,2013-04-22 20:02:00,
2013-04-22 16:03:00,81.8,74.3,29.92,ESE,115,3.0,5.0,78,0.00,,FEW,0.79,744.00,VWS V14.01,2013-04-22 20:03:00,
2013-04-22 16:05:00,81.8,74.3,29.92,SE,127,1.0,6.0,78,0.00,,FEW,0.79,738.00,VWS V14.01,2013-04-22 20:05:00,
2013-04-22 16:06:00,81.8,74.7,29.92,SSE,151,2.0,6.0,79,0.00,,FEW,0.79,726.00,VWS V14.01,2013-04-22 20:06:00,
2013-04-22 16:07:00,81.8,74.7,29.92,SE,142,4.0,6.0,79,0.00,,FEW,0.79,726.00,VWS V14.01,2013-04-22 20:07:00,
2013-04-22 16:08:00,81.6,74.1,29.92,SE,131,3.0,6.0,78,0.00,,FEW,0.79,722.00,VWS V14.01,2013-04-22 20:08:00,
2013-04-22 16:10:00,81.6,74.1,29.92,SE,126,1.0,6.0,78,0.00,,FEW,0.79,714.00,VWS V14.01,2013-04-22 20:10:00,
2013-04-22 16:12:00,81.8,74.7,29.92,ESE,120,4.0,6.0,79,0.00,,FEW,0.79,707.00,VWS V14.01,2013-04-22 20:12:00,
2013-04-22 16:13:00,82.0,74.8,29.92,SE,130,6.0,6.0,79,0.00,,FEW,0.79,703.00,VWS V14.01,2013-04-22 20:13:00,
2013-04-22 16:15:00,81.9,74.0,29.92,ESE,103,2.0,6.0,77,0.00,,FEW,0.79,700.00,VWS V14.01,2013-04-22 20:15:00,
2013-04-22 16:17:00,81.8,74.3,29.91,SE,140,2.0,6.0,78,0.00,,FEW,0.79,691.00,VWS V14.01,2013-04-22 20:17:00,
2013-04-22 16:19:00,81.8,74.3,29.91,SSE,168,5.0,6.0,78,0.00,,FEW,0.79,689.00,VWS V14.01,2013-04-22 20:19:00,
2013-04-22 16:20:00,82.0,74.8,29.91,SE,136,5.0,6.0,79,0.00,,FEW,0.79,684.00,VWS V14.01,2013-04-22 20:20:00,
2013-04-22 16:22:00,81.9,74.4,29.91,ESE,109,4.0,7.0,78,0.00,,FEW,0.79,680.00,VWS V14.01,2013-04-22 20:22:00,
2013-04-22 16:24:00,82.1,74.6,29.91,East,101,3.0,5.0,78,0.00,,FEW,0.79,675.00,VWS V14.01,2013-04-22 20:24:00,
2013-04-22 16:26:00,82.4,74.9,29.91,SSE,161,3.0,5.0,78,0.00,,FEW,0.79,666.00,VWS V14.01,2013-04-22 20:26:00,
2013-04-22 16:27:00,82.5,74.9,29.91,South,169,3.0,5.0,78,0.00,,FEW,0.79,663.00,VWS V14.01,2013-04-22 20:27:00,
2013-04-22 16:29:00,82.3,74.4,29.91,SE,128,3.0,7.0,77,0.00,,FEW,0.79,661.00,VWS V14.01,2013-04-22 20:29:00,
2013-04-22 16:31:00,82.0,74.5,29.91,SSE,155,2.0,7.0,78,0.00,,FEW,0.79,657.00,VWS V14.01,2013-04-22 20:31:00,
2013-04-22 16:32:00,82.1,74.6,29.91,SE,144,4.0,7.0,78,0.00,,FEW,0.79,654.00,VWS V14.01,2013-04-22 20:32:00,
2013-04-22 16:34:00,81.8,73.9,29.91,SSE,165,3.0,6.0,77,0.00,,FEW,0.79,661.00,VWS V14.01,2013-04-22 20:34:00,
2013-04-22 16:36:00,81.8,74.7,29.91,SSE,159,3.0,6.0,79,0.00,,FEW,0.79,601.00,VWS V14.01,2013-04-22 20:36:00,
2013-04-22 16:37:00,81.9,74.8,29.91,SE,145,3.0,6.0,79,0.00,,FEW,0.79,585.00,VWS V14.01,2013-04-22 20:37:00,
2013-04-22 16:39:00,81.7,74.2,29.91,South,184,3.0,6.0,78,0.00,,FEW,0.79,487.00,VWS V14.01,2013-04-22 20:39:00,
2013-04-22 16:41:00,81.6,74.5,29.91,SSW,204,2.0,6.0,79,0.00,,FEW,0.79,487.00,VWS V14.01,2013-04-22 20:41:00,
2013-04-22 16:43:00,81.4,74.3,29.91,South,170,5.0,7.0,79,0.00,,FEW,0.79,636.00,VWS V14.01,2013-04-22 20:43:00,
2013-04-22 16:44:00,81.4,74.3,29.91,SSE,149,3.0,7.0,79,0.00,,FEW,0.79,645.00,VWS V14.01,2013-04-22 20:44:00,
2013-04-22 16:46:00,81.5,74.4,29.91,SSE,147,4.0,7.0,79,0.00,,FEW,0.79,645.00,VWS V14.01,2013-04-22 20:46:00,
2013-04-22 16:48:00,81.6,74.5,29.91,SSW,200,2.0,7.0,79,0.00,,FEW,0.79,633.00,VWS V14.01,2013-04-22 20:48:00,
2013-04-22 16:49:00,81.6,74.5,29.91,SSE,159,4.0,7.0,79,0.00,,FEW,0.79,622.00,VWS V14.01,2013-04-22 20:49:00,
2013-04-22 16:51:00,81.5,74.4,29.91,South,173,2.0,7.0,79,0.00,,FEW,0.79,610.00,VWS V14.01,2013-04-22 20:51:00,
2013-04-22 16:52:00,81.6,74.8,29.91,SE,146,3.0,7.0,80,0.00,,FEW,0.79,610.00,VWS V14.01,2013-04-22 20:52:00,
2013-04-22 16:53:00,81.7,74.9,29.91,SSE,150,3.0,6.0,80,0.00,,FEW,0.79,612.00,VWS V14.01,2013-04-22 20:53:00,
2013-04-22 16:54:00,81.6,74.1,29.91,South,173,5.0,6.0,78,0.00,,FEW,0.79,605.00,VWS V14.01,2013-04-22 20:54:00,
2013-04-22 16:56:00,81.5,74.0,29.91,South,188,3.0,7.0,78,0.00,,FEW,0.79,598.00,VWS V14.01,2013-04-22 20:56:00,
2013-04-22 16:57:00,81.6,74.5,29.91,South,169,3.0,7.0,79,0.00,,FEW,0.79,596.00,VWS V14.01,2013-04-22 20:57:00,
2013-04-22 16:58:00,81.6,74.5,29.91,SSE,152,2.0,7.0,79,0.00,,FEW,0.79,596.00,VWS V14.01,2013-04-22 20:58:00,
2013-04-22 16:59:00,81.7,74.6,29.91,SE,136,5.0,7.0,79,0.00,,FEW,0.79,594.00,VWS V14.01,2013-04-22 20:59:00,
2013-04-22 17:01:00,81.9,74.4,29.92,SE,142,4.0,7.0,78,0.00,,FEW,0.79,555.00,VWS V14.01,2013-04-22 21:01:00,
2013-04-22 17:02:00,81.9,74.4,29.92,SE,139,4.0,7.0,78,0.00,,FEW,0.79,555.00,VWS V14.01,2013-04-22 21:02:00,
2013-04-22 17:03:00,81.8,74.7,29.92,South,171,4.0,4.0,79,0.00,,FEW,0.79,578.00,VWS V14.01,2013-04-22 21:03:00,
2013-04-22 17:04:00,81.9,74.8,29.92,SSE,167,2.0,4.0,79,0.00,,FEW,0.79,578.00,VWS V14.01,2013-04-22 21:04:00,
2013-04-22 17:07:00,82.2,74.7,29.92,SSW,196,4.0,5.0,78,0.00,,FEW,0.79,547.00,VWS V14.01,2013-04-22 21:07:00,
2013-04-22 17:08:00,82.4,74.9,29.92,SSE,157,2.0,5.0,78,0.00,,FEW,0.79,417.00,VWS V14.01,2013-04-22 21:08:00,
2013-04-22 17:09:00,82.4,74.9,29.92,SSE,161,3.0,5.0,78,0.00,,FEW,0.79,417.00,VWS V14.01,2013-04-22 21:09:00,
2013-04-22 17:12:00,82.4,75.2,29.92,South,182,5.0,5.0,79,0.00,,FEW,0.79,515.00,VWS V14.01,2013-04-22 21:12:00,
2013-04-22 17:13:00,82.5,74.9,29.92,SSE,166,3.0,4.0,78,0.00,,FEW,0.79,489.00,VWS V14.01,2013-04-22 21:13:00,
2013-04-22 17:14:00,82.5,74.6,29.92,SSE,164,4.0,4.0,77,0.00,,FEW,0.79,515.00,VWS V14.01,2013-04-22 21:14:00,
2013-04-22 17:15:00,82.4,74.5,29.92,SSE,167,3.0,5.0,77,0.00,,FEW,0.79,508.00,VWS V14.01,2013-04-22 21:15:00,
2013-04-22 17:17:00,82.2,74.3,29.92,SE,129,2.0,5.0,77,0.00,,FEW,0.79,494.00,VWS V14.01,2013-04-22 21:17:00,
2013-04-22 17:19:00,81.9,74.0,29.92,SSE,157,2.0,5.0,77,0.00,,FEW,0.79,483.00,VWS V14.01,2013-04-22 21:19:00,
2013-04-22 17:20:00,81.8,73.9,29.92,SSE,165,1.0,5.0,77,0.00,,FEW,0.79,478.00,VWS V14.01,2013-04-22 21:20:00,
2013-04-22 17:22:00,81.8,74.3,29.92,SSE,161,2.0,5.0,78,0.00,,FEW,0.79,469.00,VWS V14.01,2013-04-22 21:22:00,
2013-04-22 17:24:00,81.6,74.1,29.92,South,174,3.0,5.0,78,0.00,,FEW,0.79,462.00,VWS V14.01,2013-04-22 21:24:00,
2013-04-22 17:25:00,81.6,74.1,29.92,SSE,167,4.0,5.0,78,0.00,,FEW,0.79,459.00,VWS V14.01,2013-04-22 21:25:00,
2013-04-22 17:27:00,81.5,74.0,29.92,South,172,4.0,5.0,78,0.00,,FEW,0.79,452.00,VWS V14.01,2013-04-22 21:27:00,
2013-04-22 17:29:00,81.5,74.0,29.92,SSW,196,3.0,5.0,78,0.00,,FEW,0.79,443.00,VWS V14.01,2013-04-22 21:29:00,
2013-04-22 17:30:00,81.4,73.9,29.92,SSW,196,2.0,5.0,78,0.00,,FEW,0.79,436.00,VWS V14.01,2013-04-22 21:30:00,
2013-04-22 17:32:00,81.4,73.9,29.92,SSW,197,3.0,5.0,78,0.00,,FEW,0.79,431.00,VWS V14.01,2013-04-22 21:32:00,
2013-04-22 17:34:00,81.5,74.0,29.92,South,189,1.0,3.0,78,0.00,,FEW,0.79,425.00,VWS V14.01,2013-04-22 21:34:00,
2013-04-22 17:35:00,81.4,73.9,29.92,SSE,156,2.0,3.0,78,0.00,,FEW,0.79,424.00,VWS V14.01,2013-04-22 21:35:00,
2013-04-22 17:37:00,81.5,74.4,29.92,SSE,150,2.0,3.0,79,0.00,,FEW,0.79,417.00,VWS V14.01,2013-04-22 21:37:00,
2013-04-22 17:39:00,81.5,74.4,29.92,SE,142,1.0,3.0,79,0.00,,FEW,0.79,410.00,VWS V14.01,2013-04-22 21:39:00,
2013-04-22 17:40:00,81.6,74.5,29.92,SE,142,0.0,3.0,79,0.00,,FEW,0.79,406.00,VWS V14.01,2013-04-22 21:40:00,
2013-04-22 17:41:00,81.8,75.0,29.92,SE,142,0.0,3.0,80,0.00,,FEW,0.79,406.00,VWS V14.01,2013-04-22 21:41:00,
2013-04-22 17:43:00,82.1,74.6,29.92,SE,126,1.0,1.0,78,0.00,,FEW,0.79,397.00,VWS V14.01,2013-04-22 21:43:00,
2013-04-22 17:45:00,82.1,74.2,29.92,ESE,122,0.0,3.0,77,0.00,,FEW,0.79,396.00,VWS V14.01,2013-04-22 21:45:00,
2013-04-22 17:46:00,82.2,74.3,29.92,SSE,158,2.0,3.0,77,0.00,,FEW,0.79,396.00,VWS V14.01,2013-04-22 21:46:00,
2013-04-22 17:48:00,82.1,74.2,29.91,SSE,151,4.0,4.0,77,0.00,,FEW,0.79,390.00,VWS V14.01,2013-04-22 21:48:00,
2013-04-22 17:50:00,82.0,74.5,29.91,South,186,3.0,4.0,78,0.00,,FEW,0.79,380.00,VWS V14.01,2013-04-22 21:50:00,
2013-04-22 17:51:00,81.9,74.0,29.91,South,191,2.0,4.0,77,0.00,,FEW,0.79,374.00,VWS V14.01,2013-04-22 21:51:00,
2013-04-22 17:53:00,81.7,73.8,29.91,South,186,1.0,1.0,77,0.00,,FEW,0.79,367.00,VWS V14.01,2013-04-22 21:53:00,
2013-04-22 17:55:00,81.6,74.1,29.91,South,190,3.0,3.0,78,0.00,,FEW,0.79,114.00,VWS V14.01,2013-04-22 21:55:00,
2013-04-22 17:56:00,81.6,74.1,29.91,SSW,207,3.0,3.0,78,0.00,,FEW,0.79,114.00,VWS V14.01,2013-04-22 21:56:00,
2013-04-22 17:58:00,81.7,74.2,29.91,SSW,194,1.0,3.0,78,0.00,,FEW,0.79,123.00,VWS V14.01,2013-04-22 21:58:00,
2013-04-22 18:00:00,81.7,74.2,29.91,SSE,167,1.0,3.0,78,0.00,,FEW,0.79,130.00,VWS V14.01,2013-04-22 22:00:00,
2013-04-22 18:01:00,81.7,74.2,29.91,South,174,2.0,3.0,78,0.00,,FEW,0.79,128.00,VWS V14.01,2013-04-22 22:01:00,
2013-04-22 18:02:00,81.7,74.2,29.92,South,173,2.0,3.0,78,0.00,,FEW,0.79,127.00,VWS V14.01,2013-04-22 22:02:00,
2013-04-22 18:03:00,81.7,73.8,29.92,South,180,3.0,3.0,77,0.00,,FEW,0.79,125.00,VWS V14.01,2013-04-22 22:03:00,
2013-04-22 18:06:00,81.6,73.7,29.92,South,184,1.0,3.0,77,0.00,,FEW,0.79,113.00,VWS V14.01,2013-04-22 22:06:00,
2013-04-22 18:07:00,81.5,73.6,29.92,South,187,1.0,3.0,77,0.00,,FEW,0.79,102.00,VWS V14.01,2013-04-22 22:07:00,
2013-04-22 18:08:00,81.5,73.6,29.92,South,190,1.0,3.0,77,0.00,,FEW,0.79,98.00,VWS V14.01,2013-04-22 22:08:00,
2013-04-22 18:11:00,81.4,73.9,29.92,South,182,2.0,3.0,78,0.00,,FEW,0.79,105.00,VWS V14.01,2013-04-22 22:11:00,
2013-04-22 18:12:00,81.4,73.9,29.92,South,182,0.0,3.0,78,0.00,,FEW,0.79,102.00,VWS V14.01,2013-04-22 22:12:00,
2013-04-22 18:13:00,81.3,73.8,29.92,SSW,197,2.0,2.0,78,0.00,,FEW,0.79,162.00,VWS V14.01,2013-04-22 22:13:00,
2013-04-22 18:14:00,81.3,73.8,29.92,SSW,197,1.0,2.0,78,0.00,,FEW,0.79,162.00,VWS V14.01,2013-04-22 22:14:00,
2013-04-22 18:16:00,81.1,73.6,29.92,SSW,204,1.0,2.0,78,0.00,,FEW,0.79,251.00,VWS V14.01,2013-04-22 22:16:00,
2013-04-22 18:17:00,81.0,73.5,29.92,SSW,204,2.0,2.0,78,0.00,,FEW,0.79,213.00,VWS V14.01,2013-04-22 22:17:00,
2013-04-22 18:18:00,81.0,73.5,29.92,SSW,204,1.0,2.0,78,0.00,,FEW,0.79,213.00,VWS V14.01,2013-04-22 22:18:00,
2013-04-22 18:19:00,80.9,73.4,29.92,SSW,204,1.0,2.0,78,0.00,,FEW,0.79,260.00,VWS V14.01,2013-04-22 22:19:00,
2013-04-22 18:21:00,80.9,73.4,29.92,SSW,204,2.0,2.0,78,0.00,,FEW,0.79,260.00,VWS V14.01,2013-04-22 22:21:00,
2013-04-22 18:22:00,80.9,73.4,29.92,SSW,204,2.0,2.0,78,0.00,,FEW,0.79,267.00,VWS V14.01,2013-04-22 22:22:00,
2013-04-22 18:23:00,80.9,73.4,29.92,South,169,2.0,3.0,78,0.00,,FEW,0.79,269.00,VWS V14.01,2013-04-22 22:23:00,
2013-04-22 18:24:00,81.0,73.5,29.92,South,177,1.0,3.0,78,0.00,,FEW,0.79,269.00,VWS V14.01,2013-04-22 22:24:00,
2013-04-22 18:26:00,81.0,73.5,29.92,South,178,1.0,3.0,78,0.00,,FEW,0.79,260.00,VWS V14.01,2013-04-22 22:26:00,
2013-04-22 18:27:00,81.0,73.5,29.92,South,178,2.0,3.0,78,0.00,,FEW,0.79,260.00,VWS V14.01,2013-04-22 22:27:00,
2013-04-22 18:28:00,81.1,74.0,29.92,South,178,0.0,3.0,79,0.00,,FEW,0.79,255.00,VWS V14.01,2013-04-22 22:28:00,
2013-04-22 18:29:00,81.1,73.6,29.92,South,169,1.0,3.0,78,0.00,,FEW,0.79,253.00,VWS V14.01,2013-04-22 22:29:00,
2013-04-22 18:31:00,81.1,73.6,29.92,SSW,198,3.0,4.0,78,0.00,,FEW,0.79,257.00,VWS V14.01,2013-04-22 22:31:00,
2013-04-22 18:32:00,81.2,73.7,29.92,SSW,198,2.0,4.0,78,0.00,,FEW,0.79,257.00,VWS V14.01,2013-04-22 22:32:00,
2013-04-22 18:33:00,81.2,73.7,29.92,SSE,165,2.0,3.0,78,0.00,,FEW,0.79,253.00,VWS V14.01,2013-04-22 22:33:00,
2013-04-22 18:35:00,81.1,73.6,29.92,SSW,205,3.0,3.0,78,0.00,,FEW,0.79,237.00,VWS V14.01,2013-04-22 22:35:00,
2013-04-22 18:36:00,81.1,73.6,29.92,SSW,202,3.0,4.0,78,0.00,,FEW,0.79,234.00,VWS V14.01,2013-04-22 22:36:00,
2013-04-22 18:37:00,81.1,73.6,29.92,SSW,200,3.0,4.0,78,0.00,,FEW,0.79,236.00,VWS V14.01,2013-04-22 22:37:00,
2013-04-22 18:38:00,81.1,73.6,29.92,SSW,207,3.0,4.0,78,0.00,,FEW,0.79,241.00,VWS V14.01,2013-04-22 22:38:00,
2013-04-22 18:39:00,81.1,73.6,29.92,SSW,207,0.0,4.0,78,0.00,,FEW,0.79,237.00,VWS V14.01,2013-04-22 22:39:00,
2013-04-22 18:40:00,81.1,73.6,29.92,SSW,213,3.0,4.0,78,0.00,,FEW,0.79,232.00,VWS V14.01,2013-04-22 22:40:00,
2013-04-22 18:41:00,81.1,73.6,29.92,South,190,2.0,4.0,78,0.00,,FEW,0.79,232.00,VWS V14.01,2013-04-22 22:41:00,
2013-04-22 18:43:00,81.1,73.6,29.92,SSW,200,2.0,3.0,78,0.00,,FEW,0.79,234.00,VWS V14.01,2013-04-22 22:43:00,
2013-04-22 18:44:00,81.1,73.6,29.92,South,178,2.0,3.0,78,0.00,,FEW,0.79,229.00,VWS V14.01,2013-04-22 22:44:00,
2013-04-22 18:45:00,81.1,73.6,29.92,SSW,192,1.0,3.0,78,0.00,,FEW,0.79,221.00,VWS V14.01,2013-04-22 22:45:00,
2013-04-22 18:46:00,81.2,73.7,29.92,SSW,192,0.0,3.0,78,0.00,,FEW,0.79,207.00,VWS V14.01,2013-04-22 22:46:00,
2013-04-22 18:48:00,81.2,73.7,29.93,SSW,196,2.0,3.0,78,0.00,,FEW,0.79,200.00,VWS V14.01,2013-04-22 22:48:00,
2013-04-22 18:49:00,81.2,73.7,29.93,SSW,194,2.0,3.0,78,0.00,,FEW,0.79,200.00,VWS V14.01,2013-04-22 22:49:00,
2013-04-22 18:50:00,81.2,73.7,29.93,SSW,194,0.0,3.0,78,0.00,,FEW,0.79,190.00,VWS V14.01,2013-04-22 22:50:00,
2013-04-22 18:51:00,81.2,73.7,29.93,SSE,167,2.0,3.0,78,0.00,,FEW,0.79,183.00,VWS V14.01,2013-04-22 22:51:00,
2013-04-22 18:54:00,81.1,73.6,29.93,South,170,2.0,2.0,78,0.00,,FEW,0.79,162.00,VWS V14.01,2013-04-22 22:54:00,
2013-04-22 18:55:00,81.1,73.6,29.93,South,169,1.0,2.0,78,0.00,,FEW,0.79,156.00,VWS V14.01,2013-04-22 22:55:00,
2013-04-22 18:56:00,81.1,73.6,29.93,South,174,2.0,2.0,78,0.00,,FEW,0.79,153.00,VWS V14.01,2013-04-22 22:56:00,
2013-04-22 18:57:00,81.1,73.6,29.93,South,174,1.0,2.0,78,0.00,,FEW,0.79,151.00,VWS V14.01,2013-04-22 22:57:00,
2013-04-22 18:59:00,81.1,73.6,29.93,South,174,2.0,2.0,78,0.00,,FEW,0.79,151.00,VWS V14.01,2013-04-22 22:59:00,
2013-04-22 19:00:00,81.1,73.6,29.93,South,174,1.0,2.0,78,0.00,,FEW,0.79,153.00,VWS V14.01,2013-04-22 23:00:00,
2013-04-22 19:01:00,81.1,73.6,29.93,South,174,1.0,2.0,78,0.00,,FEW,0.79,156.00,VWS V14.01,2013-04-22 23:01:00,
2013-04-22 19:02:00,81.2,73.7,29.93,SSE,148,3.0,4.0,78,0.00,,FEW,0.79,156.00,VWS V14.01,2013-04-22 23:02:00,
2013-04-22 19:04:00,81.2,73.7,29.93,SSE,157,0.0,3.0,78,0.00,,FEW,0.79,149.00,VWS V14.01,2013-04-22 23:04:00,
2013-04-22 19:05:00,81.2,73.7,29.93,SSE,155,2.0,3.0,78,0.00,,FEW,0.79,142.00,VWS V14.01,2013-04-22 23:05:00,
2013-04-22 19:06:00,81.2,73.7,29.93,SSE,153,2.0,3.0,78,0.00,,FEW,0.79,139.00,VWS V14.01,2013-04-22 23:06:00,
2013-04-22 19:07:00,81.2,73.7,29.93,SSE,153,1.0,3.0,78,0.00,,FEW,0.79,130.00,VWS V14.01,2013-04-22 23:07:00,
2013-04-22 19:09:00,81.2,73.7,29.93,SSE,152,0.0,3.0,78,0.00,,FEW,0.79,90.00,VWS V14.01,2013-04-22 23:09:00,
2013-04-22 19:10:00,81.3,73.8,29.93,SSE,152,1.0,3.0,78,0.00,,FEW,0.79,83.00,VWS V14.01,2013-04-22 23:10:00,
2013-04-22 19:11:00,81.3,73.8,29.93,SSE,159,2.0,3.0,78,0.00,,FEW,0.79,79.00,VWS V14.01,2013-04-22 23:11:00,
2013-04-22 19:12:00,81.3,73.8,29.93,SSE,158,1.0,3.0,78,0.00,,FEW,0.79,77.00,VWS V14.01,2013-04-22 23:12:00,
2013-04-22 19:14:00,81.4,73.9,29.93,South,190,1.0,4.0,78,0.00,,FEW,0.79,74.00,VWS V14.01,2013-04-22 23:14:00,
2013-04-22 19:15:00,81.4,73.9,29.93,South,171,2.0,4.0,78,0.00,,FEW,0.79,69.00,VWS V14.01,2013-04-22 23:15:00,
2013-04-22 19:16:00,81.4,73.9,29.93,South,182,2.0,4.0,78,0.00,,FEW,0.79,65.00,VWS V14.01,2013-04-22 23:16:00,
2013-04-22 19:18:00,81.4,73.9,29.94,South,182,2.0,4.0,78,0.00,,FEW,0.79,62.00,VWS V14.01,2013-04-22 23:18:00,
2013-04-22 19:19:00,81.4,73.9,29.94,South,182,0.0,4.0,78,0.00,,FEW,0.79,58.00,VWS V14.01,2013-04-22 23:19:00,
2013-04-22 19:20:00,81.4,73.9,29.94,South,182,1.0,4.0,78,0.00,,FEW,0.79,56.00,VWS V14.01,2013-04-22 23:20:00,
2013-04-22 19:21:00,81.3,73.8,29.94,South,175,2.0,4.0,78,0.00,,FEW,0.79,49.00,VWS V14.01,2013-04-22 23:21:00,
2013-04-22 19:23:00,81.3,73.8,29.94,South,177,2.0,2.0,78,0.00,,FEW,0.79,46.00,VWS V14.01,2013-04-22 23:23:00,
2013-04-22 19:24:00,81.2,73.7,29.94,South,178,1.0,3.0,78,0.00,,FEW,0.79,46.00,VWS V14.01,2013-04-22 23:24:00,
2013-04-22 19:25:00,81.2,73.7,29.94,South,178,1.0,3.0,78,0.00,,FEW,0.79,46.00,VWS V14.01,2013-04-22 23:25:00,
2013-04-22 19:26:00,81.2,73.7,29.94,South,178,1.0,3.0,78,0.00,,FEW,0.79,46.00,VWS V14.01,2013-04-22 23:26:00,
2013-04-22 19:27:00,81.2,73.7,29.94,South,187,2.0,3.0,78,0.00,,FEW,0.79,44.00,VWS V14.01,2013-04-22 23:27:00,
2013-04-22 19:28:00,81.1,73.6,29.94,South,187,0.0,3.0,78,0.00,,FEW,0.79,44.00,VWS V14.01,2013-04-22 23:28:00,
2013-04-22 19:30:00,81.1,73.6,29.94,South,187,0.0,3.0,78,0.00,,FEW,0.79,39.00,VWS V14.01,2013-04-22 23:30:00,
2013-04-22 19:31:00,81.1,73.6,29.94,South,188,0.0,3.0,78,0.00,,FEW,0.79,39.00,VWS V14.01,2013-04-22 23:31:00,
2013-04-22 19:32:00,81.1,73.6,29.94,South,187,0.0,3.0,78,0.00,,FEW,0.79,33.00,VWS V14.01,2013-04-22 23:32:00,
2013-04-22 19:33:00,81.0,73.5,29.94,South,187,0.0,0.0,78,0.00,,FEW,0.79,30.00,VWS V14.01,2013-04-22 23:33:00,
2013-04-22 19:35:00,81.0,73.5,29.94,South,187,1.0,2.0,78,0.00,,FEW,0.79,26.00,VWS V14.01,2013-04-22 23:35:00,
2013-04-22 19:36:00,81.0,73.5,29.94,South,188,0.0,2.0,78,0.00,,FEW,0.79,25.00,VWS V14.01,2013-04-22 23:36:00,
2013-04-22 19:37:00,80.9,73.4,29.94,South,188,0.0,2.0,78,0.00,,FEW,0.79,19.00,VWS V14.01,2013-04-22 23:37:00,
2013-04-22 19:39:00,80.9,73.4,29.94,South,187,1.0,2.0,78,0.00,,FEW,0.79,14.00,VWS V14.01,2013-04-22 23:39:00,
2013-04-22 19:40:00,80.9,73.4,29.94,South,188,1.0,2.0,78,0.00,,FEW,0.79,14.00,VWS V14.01,2013-04-22 23:40:00,
2013-04-22 19:41:00,80.8,73.3,29.94,South,187,0.0,2.0,78,0.00,,FEW,0.79,12.00,VWS V14.01,2013-04-22 23:41:00,
2013-04-22 19:42:00,80.8,73.3,29.94,South,188,0.0,2.0,78,0.00,,FEW,0.79,11.00,VWS V14.01,2013-04-22 23:42:00,
2013-04-22 19:44:00,80.7,73.2,29.94,South,188,0.0,0.0,78,0.00,,FEW,0.79,9.00,VWS V14.01,2013-04-22 23:44:00,
2013-04-22 19:45:00,80.7,73.2,29.94,South,188,0.0,0.0,78,0.00,,FEW,0.79,9.00,VWS V14.01,2013-04-22 23:45:00,
2013-04-22 19:46:00,80.6,73.1,29.94,South,188,0.0,0.0,78,0.00,,FEW,0.79,7.00,VWS V14.01,2013-04-22 23:46:00,
2013-04-22 19:47:00,80.6,73.1,29.94,South,187,0.0,0.0,78,0.00,,FEW,0.79,7.00,VWS V14.01,2013-04-22 23:47:00,
2013-04-22 19:49:00,80.5,73.0,29.94,South,187,0.0,0.0,78,0.00,,FEW,0.79,5.00,VWS V14.01,2013-04-22 23:49:00,
2013-04-22 19:50:00,80.5,73.0,29.94,South,187,0.0,0.0,78,0.00,,FEW,0.79,5.00,VWS V14.01,2013-04-22 23:50:00,
2013-04-22 19:51:00,80.5,73.0,29.94,South,187,0.0,0.0,78,0.00,,FEW,0.79,0.00,VWS V14.01,2013-04-22 23:51:00,
2013-04-22 19:53:00,80.4,72.9,29.94,South,187,0.0,0.0,78,0.00,,FEW,0.79,0.00,VWS V14.01,2013-04-22 23:53:00,
2013-04-22 19:54:00,80.4,72.9,29.94,South,188,1.0,1.0,78,0.00,,FEW,0.79,0.00,VWS V14.01,2013-04-22 23:54:00,
2013-04-22 19:55:00,80.3,72.8,29.94,South,188,0.0,1.0,78,0.00,,FEW,0.79,0.00,VWS V14.01,2013-04-22 23:55:00,
2013-04-22 19:56:00,80.3,72.8,29.94,South,187,1.0,1.0,78,0.00,,FEW,0.79,0.00,VWS V14.01,2013-04-22 23:56:00,
2013-04-22 19:58:00,80.3,72.8,29.94,South,187,0.0,1.0,78,0.00,,FEW,0.79,0.00,VWS V14.01,2013-04-22 23:58:00,
2013-04-22 19:59:00,80.2,73.1,29.94,South,187,0.0,1.0,79,0.00,,FEW,0.79,0.00,VWS V14.01,2013-04-22 23:59:00,
2013-04-22 20:00:00,80.2,73.1,29.94,South,187,0.0,1.0,79,0.00,,FEW,0.79,0.00,VWS V14.01,2013-04-23 00:00:00,
2013-04-22 20:01:00,80.2,73.1,29.94,South,187,0.0,1.0,79,0.00,,FEW,0.79,0.00,VWS V14.01,2013-04-23 00:01:00,
2013-04-22 20:03:00,80.1,73.0,29.95,South,188,0.0,0.0,79,0.00,,FEW,0.79,0.00,VWS V14.01,2013-04-23 00:03:00,
2013-04-22 20:04:00,80.0,72.9,29.95,WNW,291,2.0,3.0,79,0.00,,FEW,0.79,0.00,VWS V14.01,2013-04-23 00:04:00,
2013-04-22 20:06:00,80.0,72.9,29.95,WNW,297,1.0,3.0,79,0.00,,FEW,0.79,0.00,VWS V14.01,2013-04-23 00:06:00,
2013-04-22 20:08:00,79.8,72.7,29.95,WNW,297,2.0,3.0,79,0.00,,FEW,0.79,0.00,VWS V14.01,2013-04-23 00:08:00,
2013-04-22 20:10:00,79.7,72.6,29.95,WNW,297,1.0,3.0,79,0.00,,FEW,0.79,0.00,VWS V14.01,2013-04-23 00:10:00,
2013-04-22 20:11:00,79.7,72.6,29.95,WNW,297,1.0,3.0,79,0.00,,FEW,0.79,0.00,VWS V14.01,2013-04-23 00:11:00,
2013-04-22 20:13:00,79.6,72.5,29.95,WNW,300,0.0,1.0,79,0.00,,FEW,0.79,0.00,VWS V14.01,2013-04-23 00:13:00,
2013-04-22 20:15:00,79.6,72.5,29.95,WNW,300,1.0,1.0,79,0.00,,FEW,0.79,0.00,VWS V14.01,2013-04-23 00:15:00,
2013-04-22 20:16:00,79.6,72.5,29.95,NW,313,1.0,2.0,79,0.00,,FEW,0.79,0.00,VWS V14.01,2013-04-23 00:16:00,
2013-04-22 20:18:00,79.5,72.4,29.95,NW,325,1.0,2.0,79,0.00,,FEW,0.79,0.00,VWS V14.01,2013-04-23 00:18:00,
2013-04-22 20:20:00,79.4,72.7,29.95,NNW,343,1.0,3.0,80,0.00,,FEW,0.79,0.00,VWS V14.01,2013-04-23 00:20:00,
2013-04-22 20:21:00,79.4,72.7,29.95,NNW,343,1.0,3.0,80,0.00,,FEW,0.79,0.00,VWS V14.01,2013-04-23 00:21:00,
2013-04-22 20:24:00,79.3,72.6,29.95,NNW,340,1.0,1.0,80,0.00,,FEW,0.79,0.00,VWS V14.01,2013-04-23 00:24:00,
2013-04-22 20:25:00,79.3,72.6,29.95,NNW,340,1.0,1.0,80,0.00,,FEW,0.79,0.00,VWS V14.01,2013-04-23 00:25:00,
2013-04-22 20:26:00,79.3,72.6,29.95,NNW,340,1.0,1.0,80,0.00,,FEW,0.79,0.00,VWS V14.01,2013-04-23 00:26:00,
2013-04-22 20:29:00,79.3,72.6,29.95,NNW,340,0.0,2.0,80,0.00,,FEW,0.79,0.00,VWS V14.01,2013-04-23 00:29:00,
2013-04-22 20:30:00,79.2,72.5,29.95,NNW,340,1.0,2.0,80,0.00,,FEW,0.79,0.00,VWS V14.01,2013-04-23 00:30:00,
2013-04-22 20:31:00,79.2,72.5,29.95,NNW,340,2.0,2.0,80,0.00,,FEW,0.79,0.00,VWS V14.01,2013-04-23 00:31:00,
2013-04-22 20:32:00,79.2,72.5,29.96,NNW,340,3.0,3.0,80,0.00,,FEW,0.79,0.00,VWS V14.01,2013-04-23 00:32:00,
2013-04-22 20:34:00,79.2,72.9,29.96,NNW,340,0.0,2.0,81,0.00,,FEW,0.79,0.00,VWS V14.01,2013-04-23 00:34:00,
2013-04-22 20:36:00,79.1,72.8,29.96,NNW,340,0.0,2.0,81,0.00,,FEW,0.79,0.00,VWS V14.01,2013-04-23 00:36:00,
2013-04-22 20:37:00,79.1,72.8,29.96,North,360,2.0,2.0,81,0.00,,FEW,0.79,0.00,VWS V14.01,2013-04-23 00:37:00,
2013-04-22 20:39:00,79.1,72.8,29.96,NNW,327,0.0,2.0,81,0.00,,FEW,0.79,0.00,VWS V14.01,2013-04-23 00:39:00,
2013-04-22 20:41:00,79.1,72.8,29.96,NNW,327,1.0,2.0,81,0.00,,FEW,0.79,0.00,VWS V14.01,2013-04-23 00:41:00,
2013-04-22 20:42:00,79.1,72.8,29.96,NNW,327,0.0,2.0,81,0.00,,FEW,0.79,0.00,VWS V14.01,2013-04-23 00:42:00,
2013-04-22 20:44:00,79.0,72.7,29.96,NNW,340,1.0,1.0,81,0.00,,FEW,0.79,0.00,VWS V14.01,2013-04-23 00:44:00,
2013-04-22 20:46:00,79.0,72.7,29.96,North,351,0.0,2.0,81,0.00,,FEW,0.79,0.00,VWS V14.01,2013-04-23 00:46:00,
2013-04-22 20:47:00,79.0,72.7,29.97,NNE,25,2.0,2.0,81,0.00,,FEW,0.79,0.00,VWS V14.01,2013-04-23 00:47:00,
2013-04-22 20:49:00,78.9,72.6,29.97,North,5,2.0,3.0,81,0.00,,FEW,0.79,0.00,VWS V14.01,2013-04-23 00:49:00,
2013-04-22 20:51:00,78.9,72.9,29.97,NNE,19,1.0,3.0,82,0.00,,FEW,0.79,0.00,VWS V14.01,2013-04-23 00:51:00,
2013-04-22 20:52:00,78.9,72.9,29.97,NNE,19,1.0,3.0,82,0.00,,FEW,0.79,0.00,VWS V14.01,2013-04-23 00:52:00,
2013-04-22 20:55:00,78.8,72.8,29.97,NNE,18,1.0,2.0,82,0.00,,FEW,0.79,0.00,VWS V14.01,2013-04-23 00:55:00,
2013-04-22 20:56:00,78.8,72.8,29.97,North,11,1.0,2.0,82,0.00,,FEW,0.79,0.00,VWS V14.01,2013-04-23 00:56:00,
2013-04-22 20:57:00,78.8,72.8,29.97,North,11,1.0,2.0,82,0.00,,FEW,0.79,0.00,VWS V14.01,2013-04-23 00:57:00,
2013-04-22 21:00:00,78.7,72.8,29.97,NNE,22,0.0,2.0,82,0.00,,FEW,0.79,0.00,VWS V14.01,2013-04-23 01:00:00,
2013-04-22 21:02:00,78.7,72.8,29.97,NNE,13,0.0,2.0,82,0.00,,FEW,0.79,0.00,VWS V14.01,2013-04-23 01:02:00,
2013-04-22 21:03:00,78.7,72.8,29.97,North,355,2.0,4.0,82,0.00,,FEW,0.79,0.00,VWS V14.01,2013-04-23 01:03:00,
2013-04-22 21:05:00,78.6,72.7,29.97,North,350,1.0,4.0,82,0.00,,FEW,0.79,0.00,VWS V14.01,2013-04-23 01:05:00,
2013-04-22 21:07:00,78.6,72.7,29.97,NNE,22,3.0,4.0,82,0.00,,FEW,0.79,0.00,VWS V14.01,2013-04-23 01:07:00,
2013-04-22 21:08:00,78.6,72.7,29.97,North,360,3.0,4.0,82,0.00,,FEW,0.79,0.00,VWS V14.01,2013-04-23 01:08:00,
2013-04-22 21:10:00,78.6,72.7,29.97,North,355,5.0,5.0,82,0.00,,FEW,0.79,0.00,VWS V14.01,2013-04-23 01:10:00,
2013-04-22 21:12:00,78.6,72.7,29.97,North,351,3.0,5.0,82,0.00,,FEW,0.79,0.00,VWS V14.01,2013-04-23 01:12:00,
2013-04-22 21:13:00,78.6,72.7,29.97,North,351,2.0,2.0,82,0.00,,FEW,0.79,0.00,VWS V14.01,2013-04-23 01:13:00,
2013-04-22 21:15:00,78.6,72.7,29.97,North,351,2.0,3.0,82,0.00,,FEW,0.79,0.00,VWS V14.01,2013-04-23 01:15:00,
2013-04-22 21:17:00,78.6,72.7,29.97,NNE,15,1.0,3.0,82,0.00,,FEW,0.79,0.00,VWS V14.01,2013-04-23 01:17:00,
2013-04-22 21:18:00,78.6,72.7,29.97,NNE,15,1.0,3.0,82,0.00,,FEW,0.79,0.00,VWS V14.01,2013-04-23 01:18:00,
2013-04-22 21:21:00,78.6,72.7,29.97,NNW,337,3.0,4.0,82,0.00,,FEW,0.79,0.00,VWS V14.01,2013-04-23 01:21:00,
2013-04-22 21:22:00,78.5,72.6,29.97,North,360,2.0,4.0,82,0.00,,FEW,0.79,0.00,VWS V14.01,2013-04-23 01:22:00,
2013-04-22 21:23:00,78.5,72.6,29.97,North,355,2.0,3.0,82,0.00,,FEW,0.79,0.00,VWS V14.01,2013-04-23 01:23:00,
2013-04-22 21:25:00,78.5,72.6,29.97,NNW,338,3.0,5.0,82,0.00,,FEW,0.79,0.00,VWS V14.01,2013-04-23 01:25:00,
2013-04-22 21:28:00,78.5,72.6,29.97,NNW,340,3.0,5.0,82,0.00,,FEW,0.79,0.00,VWS V14.01,2013-04-23 01:28:00,
2013-04-22 21:31:00,78.5,72.6,29.97,NNW,341,4.0,5.0,82,0.00,,FEW,0.79,0.00,VWS V14.01,2013-04-23 01:31:00,
2013-04-22 21:33:00,78.6,72.7,29.97,NNW,340,3.0,4.0,82,0.00,,FEW,0.79,0.00,VWS V14.01,2013-04-23 01:33:00,
2013-04-22 21:34:00,78.6,72.7,29.97,North,351,3.0,4.0,82,0.00,,FEW,0.79,0.00,VWS V14.01,2013-04-23 01:34:00,
2013-04-22 21:36:00,78.6,72.7,29.97,North,360,1.0,4.0,82,0.00,,FEW,0.79,0.00,VWS V14.01,2013-04-23 01:36:00,
2013-04-22 21:38:00,78.7,72.8,29.97,North,9,2.0,4.0,82,0.00,,FEW,0.79,0.00,VWS V14.01,2013-04-23 01:38:00,
2013-04-22 21:39:00,78.6,72.7,29.97,North,5,2.0,5.0,82,0.00,,FEW,0.79,0.00,VWS V14.01,2013-04-23 01:39:00,
2013-04-22 21:41:00,78.6,72.7,29.97,NNW,339,5.0,5.0,82,0.00,,FEW,0.79,0.00,VWS V14.01,2013-04-23 01:41:00,
2013-04-22 21:43:00,78.6,72.7,29.97,NNE,17,1.0,3.0,82,0.00,,FEW,0.79,0.00,VWS V14.01,2013-04-23 01:43:00,
2013-04-22 21:44:00,78.6,72.3,29.97,North,5,2.0,3.0,81,0.00,,FEW,0.79,0.00,VWS V14.01,2013-04-23 01:44:00,
2013-04-22 21:46:00,78.6,72.3,29.97,North,355,4.0,4.0,81,0.00,,FEW,0.79,0.00,VWS V14.01,2013-04-23 01:46:00,
2013-04-22 21:48:00,78.6,72.7,29.98,NNW,343,1.0,5.0,82,0.00,,FEW,0.79,0.00,VWS V14.01,2013-04-23 01:48:00,
2013-04-22 21:49:00,78.6,72.7,29.98,North,5,2.0,5.0,82,0.00,,FEW,0.79,0.00,VWS V14.01,2013-04-23 01:49:00,
2013-04-22 21:51:00,78.6,72.7,29.98,North,5,2.0,5.0,82,0.00,,FEW,0.79,0.00,VWS V14.01,2013-04-23 01:51:00,
2013-04-22 21:53:00,78.6,72.7,29.98,NE,34,3.0,4.0,82,0.00,,FEW,0.79,0.00,VWS V14.01,2013-04-23 01:53:00,
2013-04-22 21:54:00,78.6,72.7,29.98,NE,34,1.0,4.0,82,0.00,,FEW,0.79,0.00,VWS V14.01,2013-04-23 01:54:00,
2013-04-22 21:56:00,78.6,72.7,29.98,North,351,1.0,6.0,82,0.00,,FEW,0.79,0.00,VWS V14.01,2013-04-23 01:56:00,
2013-04-22 21:58:00,78.6,72.7,29.98,NE,42,8.0,8.0,82,0.00,,FEW,0.79,0.00,VWS V14.01,2013-04-23 01:58:00,
2013-04-22 21:59:00,78.6,72.7,29.98,NE,39,5.0,8.0,82,0.00,,FEW,0.79,0.00,VWS V14.01,2013-04-23 01:59:00,
2013-04-22 22:01:00,78.5,72.6,29.98,NNE,28,4.0,8.0,82,0.00,,FEW,0.79,0.00,VWS V14.01,2013-04-23 02:01:00,
2013-04-22 22:03:00,78.3,72.0,29.98,NE,46,3.0,8.0,81,0.00,,FEW,0.79,0.00,VWS V14.01,2013-04-23 02:03:00,
2013-04-22 22:04:00,78.3,72.0,29.98,ENE,66,2.0,8.0,81,0.00,,FEW,0.79,0.00,VWS V14.01,2013-04-23 02:04:00,
2013-04-22 22:06:00,78.1,72.2,29.98,ENE,76,4.0,8.0,82,0.00,,FEW,0.79,0.00,VWS V14.01,2013-04-23 02:06:00,
2013-04-22 22:09:00,77.9,72.0,29.98,NE,52,2.0,8.0,82,0.01,,FEW,0.80,0.00,VWS V14.01,2013-04-23 02:09:00,
2013-04-22 22:11:00,77.6,72.0,29.98,ENE,59,3.0,8.0,83,0.01,,FEW,0.80,0.00,VWS V14.01,2013-04-23 02:11:00,
2013-04-22 22:14:00,77.5,72.3,29.98,ENE,61,4.0,4.0,84,0.05,,FEW,0.84,0.00,VWS V14.01,2013-04-23 02:14:00,
2013-04-22 22:15:00,77.4,72.2,29.98,East,83,2.0,5.0,84,0.05,,FEW,0.84,0.00,VWS V14.01,2013-04-23 02:15:00,
2013-04-22 22:17:00,77.3,72.4,29.99,East,84,1.0,5.0,85,0.05,,FEW,0.84,0.00,VWS V14.01,2013-04-23 02:17:00,
2013-04-22 22:19:00,77.2,72.7,29.99,NNE,26,1.0,5.0,86,0.05,,FEW,0.84,0.00,VWS V14.01,2013-04-23 02:19:00,
2013-04-22 22:20:00,77.1,72.6,29.99,ENE,59,4.0,5.0,86,0.05,,FEW,0.84,0.00,VWS V14.01,2013-04-23 02:20:00,
2013-04-22 22:22:00,77.1,72.9,29.99,ENE,58,7.0,11.0,87,0.06,,FEW,0.85,0.00,VWS V14.01,2013-04-23 02:22:00,
2013-04-22 22:24:00,77.0,72.8,29.99,NE,49,7.0,8.0,87,0.06,,FEW,0.85,0.00,VWS V14.01,2013-04-23 02:24:00,
2013-04-22 22:25:00,76.8,72.6,29.99,NNE,12,8.0,8.0,87,0.06,,FEW,0.85,0.00,VWS V14.01,2013-04-23 02:25:00,
2013-04-22 22:27:00,76.7,72.5,29.99,NNE,30,5.0,9.0,87,0.06,,FEW,0.85,0.00,VWS V14.01,2013-04-23 02:27:00,
2013-04-22 22:29:00,76.5,72.7,29.99,NNE,20,8.0,13.0,88,0.06,,FEW,0.85,0.00,VWS V14.01,2013-04-23 02:29:00,
2013-04-22 22:31:00,76.5,72.7,29.99,North,5,7.0,13.0,88,0.06,,FEW,0.85,0.00,VWS V14.01,2013-04-23 02:31:00,
2013-04-22 22:32:00,76.4,72.6,29.99,NE,45,7.0,13.0,88,0.06,,FEW,0.85,0.00,VWS V14.01,2013-04-23 02:32:00,
2013-04-22 22:34:00,76.3,72.5,29.99,NE,45,8.0,10.0,88,0.06,,FEW,0.85,0.00,VWS V14.01,2013-04-23 02:34:00,
2013-04-22 22:36:00,76.2,72.4,29.99,NE,35,3.0,15.0,88,0.06,,FEW,0.85,0.00,VWS V14.01,2013-04-23 02:36:00,
2013-04-22 22:37:00,76.0,72.2,29.99,NE,36,6.0,15.0,88,0.06,,FEW,0.85,0.00,VWS V14.01,2013-04-23 02:37:00,
2013-04-22 22:39:00,75.8,72.0,29.99,NE,41,10.0,15.0,88,0.06,,FEW,0.85,0.00,VWS V14.01,2013-04-23 02:39:00,
2013-04-22 22:40:00,75.8,72.0,29.99,NE,46,5.0,15.0,88,0.06,,FEW,0.85,0.00,VWS V14.01,2013-04-23 02:40:00,
2013-04-22 22:41:00,75.7,71.9,29.99,NNE,13,10.0,15.0,88,0.06,,FEW,0.85,0.00,VWS V14.01,2013-04-23 02:41:00,
2013-04-22 22:42:00,75.5,71.7,29.99,NE,34,8.0,15.0,88,0.06,,FEW,0.85,0.00,VWS V14.01,2013-04-23 02:42:00,
2013-04-22 22:44:00,75.4,71.6,29.99,NNE,31,8.0,13.0,88,0.06,,FEW,0.85,0.00,VWS V14.01,2013-04-23 02:44:00,
2013-04-22 22:45:00,75.4,71.6,29.99,NNE,26,4.0,13.0,88,0.06,,FEW,0.85,0.00,VWS V14.01,2013-04-23 02:45:00,
2013-04-22 22:46:00,75.4,71.6,29.99,NNE,23,6.0,13.0,88,0.06,,FEW,0.85,0.00,VWS V14.01,2013-04-23 02:46:00,
2013-04-22 22:47:00,75.5,71.7,29.99,NE,35,9.0,14.0,88,0.06,,FEW,0.85,0.00,VWS V14.01,2013-04-23 02:47:00,
2013-04-22 22:49:00,75.4,71.6,29.99,NE,52,4.0,14.0,88,0.06,,FEW,0.85,0.00,VWS V14.01,2013-04-23 02:49:00,
2013-04-22 22:50:00,75.4,71.6,29.99,North,355,12.0,14.0,88,0.06,,FEW,0.85,0.00,VWS V14.01,2013-04-23 02:50:00,
2013-04-22 22:51:00,75.4,71.6,29.99,ENE,61,12.0,14.0,88,0.06,,FEW,0.85,0.00,VWS V14.01,2013-04-23 02:51:00,
2013-04-22 22:53:00,75.3,71.2,29.99,NE,35,10.0,10.0,87,0.06,,FEW,0.85,0.00,VWS V14.01,2013-04-23 02:53:00,
2013-04-22 22:55:00,75.3,71.2,29.99,NNE,32,11.0,14.0,87,0.06,,FEW,0.85,0.00,VWS V14.01,2013-04-23 02:55:00,
2013-04-22 22:56:00,75.3,71.5,29.99,NE,35,7.0,14.0,88,0.06,,FEW,0.85,0.00,VWS V14.01,2013-04-23 02:56:00,
2013-04-22 22:58:00,75.3,71.5,29.99,North,5,10.0,14.0,88,0.06,,FEW,0.85,0.00,VWS V14.01,2013-04-23 02:58:00,
2013-04-22 23:00:00,75.3,71.2,29.99,NNE,32,7.0,14.0,87,0.06,,FEW,0.85,0.00,VWS V14.01,2013-04-23 03:00:00,
2013-04-22 23:01:00,75.3,71.2,29.99,ENE,66,11.0,14.0,87,0.06,,FEW,0.85,0.00,VWS V14.01,2013-04-23 03:01:00,
2013-04-22 23:03:00,75.2,71.1,29.99,NNE,15,7.0,12.0,87,0.06,,FEW,0.85,0.00,VWS V14.01,2013-04-23 03:03:00,
2013-04-22 23:05:00,75.3,71.2,29.99,NNE,26,12.0,12.0,87,0.06,,FEW,0.85,0.00,VWS V14.01,2013-04-23 03:05:00,
2013-04-22 23:06:00,75.3,71.2,29.99,NE,40,5.0,12.0,87,0.06,,FEW,0.85,0.00,VWS V14.01,2013-04-23 03:06:00,
2013-04-22 23:07:00,75.3,71.2,29.99,NE,38,7.0,12.0,87,0.06,,FEW,0.85,0.00,VWS V14.01,2013-04-23 03:07:00,
2013-04-22 23:08:00,75.5,71.7,29.99,NE,54,6.0,12.0,88,0.06,,FEW,0.85,0.00,VWS V14.01,2013-04-23 03:08:00,
2013-04-22 23:10:00,75.5,71.7,29.99,ENE,64,8.0,12.0,88,0.06,,FEW,0.85,0.00,VWS V14.01,2013-04-23 03:10:00,
2013-04-22 23:11:00,75.6,71.8,29.99,NE,40,6.0,12.0,88,0.06,,FEW,0.85,0.00,VWS V14.01,2013-04-23 03:11:00,
2013-04-22 23:12:00,75.6,71.8,29.99,NE,36,8.0,12.0,88,0.06,,FEW,0.85,0.00,VWS V14.01,2013-04-23 03:12:00,
2013-04-22 23:13:00,75.5,71.7,29.99,NE,49,5.0,10.0,88,0.03,,FEW,0.85,0.00,VWS V14.01,2013-04-23 03:13:00,
2013-04-22 23:15:00,75.5,71.7,29.99,ENE,60,11.0,12.0,88,0.03,,FEW,0.85,0.00,VWS V14.01,2013-04-23 03:15:00,
2013-04-22 23:16:00,75.5,71.7,30.00,NE,42,11.0,13.0,88,0.03,,FEW,0.85,0.00,VWS V14.01,2013-04-23 03:16:00,
2013-04-22 23:17:00,75.5,71.7,30.00,NE,44,6.0,13.0,88,0.03,,FEW,0.85,0.00,VWS V14.01,2013-04-23 03:17:00,
2013-04-22 23:18:00,75.5,71.7,30.00,NNE,17,8.0,13.0,88,0.03,,FEW,0.85,0.00,VWS V14.01,2013-04-23 03:18:00,
2013-04-22 23:20:00,75.6,71.8,30.00,NNE,28,6.0,13.0,88,0.03,,FEW,0.85,0.00,VWS V14.01,2013-04-23 03:20:00,
2013-04-22 23:21:00,75.6,71.8,30.00,NE,36,7.0,13.0,88,0.03,,FEW,0.85,0.00,VWS V14.01,2013-04-23 03:21:00,
2013-04-22 23:22:00,75.6,71.8,30.00,NNE,22,5.0,13.0,88,0.03,,FEW,0.85,0.00,VWS V14.01,2013-04-23 03:22:00,
2013-04-22 23:23:00,75.7,71.6,30.00,NNE,26,4.0,10.0,87,0.00,,FEW,0.85,0.00,VWS V14.01,2013-04-23 03:23:00,
2013-04-22 23:25:00,75.6,71.5,30.00,NNE,31,8.0,10.0,87,0.00,,FEW,0.85,0.00,VWS V14.01,2013-04-23 03:25:00,
2013-04-22 23:26:00,75.6,71.5,30.00,NE,42,7.0,10.0,87,0.00,,FEW,0.85,0.00,VWS V14.01,2013-04-23 03:26:00,
2013-04-22 23:27:00,75.6,71.5,30.00,NNE,30,6.0,12.0,87,0.00,,FEW,0.85,0.00,VWS V14.01,2013-04-23 03:27:00,
2013-04-22 23:28:00,75.6,71.5,30.00,NE,51,5.0,13.0,87,0.00,,FEW,0.85,0.00,VWS V14.01,2013-04-23 03:28:00,
2013-04-22 23:31:00,75.6,71.5,30.00,NNE,31,6.0,13.0,87,0.00,,FEW,0.85,0.00,VWS V14.01,2013-04-23 03:31:00,
2013-04-22 23:32:00,75.6,71.5,29.99,NNE,30,5.0,13.0,87,0.00,,FEW,0.85,0.00,VWS V14.01,2013-04-23 03:32:00,
2013-04-22 23:34:00,75.6,71.5,29.99,ENE,57,5.0,7.0,87,0.00,,FEW,0.85,0.00,VWS V14.01,2013-04-23 03:34:00,
2013-04-22 23:36:00,75.7,71.6,29.99,NE,53,5.0,10.0,87,0.00,,FEW,0.85,0.00,VWS V14.01,2013-04-23 03:36:00,
2013-04-22 23:37:00,75.7,71.6,29.99,ENE,57,2.0,10.0,87,0.00,,FEW,0.85,0.00,VWS V14.01,2013-04-23 03:37:00,
2013-04-22 23:39:00,75.7,71.6,29.99,ENE,63,4.0,10.0,87,0.00,,FEW,0.85,0.00,VWS V14.01,2013-04-23 03:39:00,
2013-04-22 23:41:00,75.8,71.7,29.99,NE,46,4.0,10.0,87,0.00,,FEW,0.85,0.00,VWS V14.01,2013-04-23 03:41:00,
2013-04-22 23:42:00,75.8,71.7,29.99,NE,53,7.0,10.0,87,0.00,,FEW,0.85,0.00,VWS V14.01,2013-04-23 03:42:00,
2013-04-22 23:45:00,75.8,71.7,29.99,ENE,57,8.0,12.0,87,0.00,,FEW,0.85,0.00,VWS V14.01,2013-04-23 03:45:00,
2013-04-22 23:46:00,75.8,71.7,29.99,ESE,118,5.0,12.0,87,0.00,,FEW,0.85,0.00,VWS V14.01,2013-04-23 03:46:00,
2013-04-22 23:47:00,75.8,71.3,29.99,NE,35,3.0,12.0,86,0.00,,FEW,0.85,0.00,VWS V14.01,2013-04-23 03:47:00,
2013-04-22 23:48:00,75.8,71.3,29.99,ENE,65,4.0,12.0,86,0.00,,FEW,0.85,0.00,VWS V14.01,2013-04-23 03:48:00,
2013-04-22 23:51:00,75.8,71.3,29.99,ESE,121,2.0,12.0,86,0.00,,FEW,0.85,0.00,VWS V14.01,2013-04-23 03:51:00,
2013-04-22 23:52:00,75.8,71.3,29.99,ENE,74,4.0,12.0,86,0.00,,FEW,0.85,0.00,VWS V14.01,2013-04-23 03:52:00,
2013-04-22 23:53:00,75.8,71.3,29.99,ESE,114,2.0,4.0,86,0.00,,FEW,0.85,0.00,VWS V14.01,2013-04-23 03:53:00,
2013-04-22 23:56:00,75.8,71.3,29.99,East,100,2.0,7.0,86,0.00,,FEW,0.85,0.00,VWS V14.01,2013-04-23 03:56:00,
2013-04-22 23:57:00,75.7,71.6,29.99,ENE,61,2.0,7.0,87,0.00,,FEW,0.85,0.00,VWS V14.01,2013-04-23 03:57:00,
2013-04-22 23:58:00,75.7,71.6,29.99,East,90,2.0,7.0,87,0.00,,FEW,0.85,0.00,VWS V14.01,2013-04-23 03:58:00,